Observation data for Estelline on 02/14/2020      Previous  Date  Next       Current Mesonet Observations  Soil Data  Daily Summary Page  Observations in Plain Language
KES1 140600Z 08005KT M04/M10 A3038 RMK A01 T10411100  RH  064%=      5-min Rain = 0
KES1 140601Z 08004KT M04/M10 A3038 RMK A01 T10411099  RH  064%=      5-min Rain = 0
KES1 140602Z 08005KT M04/M10 A3039 RMK A01 T10411099  RH  064%=      5-min Rain = 0
KES1 140603Z 08004KT M04/M10 A3039 RMK A01 T10421101  RH  064%=      5-min Rain = 0
KES1 140604Z 08004KT M04/M10 A3039 RMK A01 T10411101  RH  063%=      5-min Rain = 0
KES1 140605Z 07003KT M04/M10 A3039 RMK A01 T10411101  RH  063%=      5-min Rain = 0
KES1 140606Z 08005KT M04/M10 A3039 RMK A01 T10411101  RH  063%=      5-min Rain = 0
KES1 140607Z 07005KT M04/M10 A3039 RMK A01 T10411101  RH  063%=      5-min Rain = 0
KES1 140608Z 07005KT M04/M10 A3039 RMK A01 T10411102  RH  063%=      5-min Rain = 0
KES1 140609Z 08004KT M04/M10 A3039 RMK A01 T10421102  RH  063%=      5-min Rain = 0
KES1 140610Z 08004KT M04/M10 A3039 RMK A01 T10421102  RH  063%=      5-min Rain = 0
KES1 140611Z 08005KT M04/M10 A3039 RMK A01 T10421101  RH  063%=      5-min Rain = 0
KES1 140612Z 08005KT M04/M10 A3039 RMK A01 T10421101  RH  064%=      5-min Rain = 0
KES1 140613Z 07005KT M04/M10 A3039 RMK A01 T10431101  RH  064%=      5-min Rain = 0
KES1 140614Z 08005KT M04/M10 A3038 RMK A01 T10431102  RH  064%=      5-min Rain = 0
KES1 140615Z 08006KT M04/M10 A3038 RMK A01 T10431101  RH  064%=      5-min Rain = 0
KES1 140616Z 07005KT M04/M10 A3038 RMK A01 T10431101  RH  064%=      5-min Rain = 0
KES1 140617Z 07005KT M04/M10 A3039 RMK A01 T10431101  RH  064%=      5-min Rain = 0
KES1 140618Z 08005KT M04/M10 A3039 RMK A01 T10431101  RH  064%=      5-min Rain = 0
KES1 140619Z 07007KT M04/M10 A3039 RMK A01 T10441101  RH  064%=      5-min Rain = 0
KES1 140620Z 07006KT M04/M10 A3038 RMK A01 T10441102  RH  064%=      5-min Rain = 0
KES1 140621Z 07006KT M04/M10 A3038 RMK A01 T10431102  RH  064%=      5-min Rain = 0
KES1 140622Z 07006KT M04/M10 A3039 RMK A01 T10431101  RH  064%=      5-min Rain = 0
KES1 140623Z 07005KT M04/M10 A3039 RMK A01 T10431102  RH  064%=      5-min Rain = 0
KES1 140624Z 06006KT M04/M10 A3039 RMK A01 T10431101  RH  064%=      5-min Rain = 0
KES1 140625Z 07006KT M04/M10 A3038 RMK A01 T10431101  RH  064%=      5-min Rain = 0
KES1 140626Z 06005KT M04/M10 A3038 RMK A01 T10441101  RH  064%=      5-min Rain = 0
KES1 140627Z 06007KT M04/M10 A3038 RMK A01 T10441101  RH  065%=      5-min Rain = 0
KES1 140628Z 06007KT M04/M10 A3038 RMK A01 T10431102  RH  064%=      5-min Rain = 0
KES1 140629Z 07008KT M04/M10 A3038 RMK A01 T10441103  RH  063%=      5-min Rain = 0
KES1 140630Z 07008KT M04/M10 A3038 RMK A01 T10441104  RH  063%=      5-min Rain = 0
KES1 140631Z 07008KT M04/M10 A3038 RMK A01 T10441104  RH  063%=      5-min Rain = 0
KES1 140632Z 07008KT M04/M11 A3038 RMK A01 T10441105  RH  063%=      5-min Rain = 0
KES1 140633Z 08008KT M04/M11 A3038 RMK A01 T10441105  RH  062%=      5-min Rain = 0
KES1 140634Z 07006KT M04/M11 A3038 RMK A01 T10441105  RH  062%=      5-min Rain = 0
KES1 140635Z 07007KT M04/M11 A3038 RMK A01 T10441105  RH  062%=      5-min Rain = 0
KES1 140636Z 07007KT M04/M10 A3038 RMK A01 T10441104  RH  063%=      5-min Rain = 0
KES1 140637Z 07007KT M04/M11 A3038 RMK A01 T10441105  RH  062%=      5-min Rain = 0
KES1 140638Z 07006KT M04/M10 A3038 RMK A01 T10441104  RH  062%=      5-min Rain = 0
KES1 140639Z 07006KT M04/M10 A3039 RMK A01 T10441104  RH  063%=      5-min Rain = 0
KES1 140640Z 07007KT M04/M10 A3039 RMK A01 T10441104  RH  063%=      5-min Rain = 0
KES1 140641Z 07008KT M05/M10 A3039 RMK A01 T10451104  RH  063%=      5-min Rain = 0
KES1 140642Z 07006KT M05/M11 A3039 RMK A01 T10451105  RH  063%=      5-min Rain = 0
KES1 140643Z 07006KT M04/M10 A3039 RMK A01 T10441104  RH  063%=      5-min Rain = 0
KES1 140644Z 07006KT M05/M10 A3039 RMK A01 T10451104  RH  063%=      5-min Rain = 0
KES1 140645Z 08006KT M05/M11 A3039 RMK A01 T10451105  RH  063%=      5-min Rain = 0
KES1 140646Z 07006KT M05/M10 A3038 RMK A01 T10461104  RH  064%=      5-min Rain = 0
KES1 140647Z 07007KT M05/M10 A3039 RMK A01 T10461104  RH  064%=      5-min Rain = 0
KES1 140648Z 07006KT M05/M11 A3039 RMK A01 T10461105  RH  063%=      5-min Rain = 0
KES1 140649Z 07006KT M05/M11 A3039 RMK A01 T10461106  RH  063%=      5-min Rain = 0
KES1 140650Z 07006KT M05/M11 A3039 RMK A01 T10461106  RH  063%=      5-min Rain = 0
KES1 140651Z 07006KT M05/M11 A3039 RMK A01 T10461105  RH  064%=      5-min Rain = 0
KES1 140652Z 07005KT M05/M10 A3039 RMK A01 T10471104  RH  064%=      5-min Rain = 0
KES1 140653Z 07006KT M05/M10 A3039 RMK A01 T10471104  RH  065%=      5-min Rain = 0
KES1 140654Z 06005KT M05/M10 A3039 RMK A01 T10481104  RH  065%=      5-min Rain = 0
KES1 140655Z 07006KT M05/M10 A3039 RMK A01 T10481104  RH  065%=      5-min Rain = 0
KES1 140656Z 06006KT M05/M10 A3039 RMK A01 T10481104  RH  065%=      5-min Rain = 0
KES1 140657Z 06007KT M05/M11 A3039 RMK A01 T10481105  RH  064%=      5-min Rain = 0
KES1 140658Z 06006KT M05/M11 A3039 RMK A01 T10471105  RH  064%=      5-min Rain = 0
KES1 140659Z 06006KT M05/M11 A3039 RMK A01 T10481105  RH  064%=      5-min Rain = 0
KES1 140700Z 06006KT M05/M11 A3039 RMK A01 T10481105  RH  065%=      5-min Rain = 0
KES1 140701Z 07006KT M05/M11 A3039 RMK A01 T10491105  RH  065%=      5-min Rain = 0
KES1 140702Z 07007KT M05/M11 A3039 RMK A01 T10491105  RH  065%=      5-min Rain = 0
KES1 140703Z 07007KT M05/M11 A3039 RMK A01 T10491105  RH  065%=      5-min Rain = 0
KES1 140704Z 07007KT M05/M11 A3039 RMK A01 T10491106  RH  064%=      5-min Rain = 0
KES1 140705Z 07008KT M05/M11 A3039 RMK A01 T10491106  RH  064%=      5-min Rain = 0
KES1 140706Z 07006KT M05/M11 A3039 RMK A01 T10491106  RH  064%=      5-min Rain = 0
KES1 140707Z 06006KT M05/M11 A3039 RMK A01 T10491106  RH  064%=      5-min Rain = 0
KES1 140708Z 07005KT M05/M11 A3039 RMK A01 T10491106  RH  065%=      5-min Rain = 0
KES1 140709Z 07007KT M05/M11 A3039 RMK A01 T10501106  RH  065%=      5-min Rain = 0
KES1 140710Z 07007KT M05/M11 A3039 RMK A01 T10501106  RH  065%=      5-min Rain = 0
KES1 140711Z 07006KT M05/M11 A3039 RMK A01 T10501105  RH  065%=      5-min Rain = 0
KES1 140712Z 07007KT M05/M11 A3039 RMK A01 T10501105  RH  065%=      5-min Rain = 0
KES1 140713Z 07007KT M05/M11 A3039 RMK A01 T10501105  RH  065%=      5-min Rain = 0
KES1 140714Z 07007KT M05/M11 A3039 RMK A01 T10511105  RH  065%=      5-min Rain = 0
KES1 140715Z 07007KT M05/M11 A3039 RMK A01 T10511106  RH  065%=      5-min Rain = 0
KES1 140716Z 07006KT M05/M11 A3039 RMK A01 T10511106  RH  065%=      5-min Rain = 0
KES1 140717Z 07006KT M05/M11 A3039 RMK A01 T10501105  RH  065%=      5-min Rain = 0
KES1 140718Z 06006KT M05/M11 A3039 RMK A01 T10511105  RH  066%=      5-min Rain = 0
KES1 140719Z 07006KT M05/M11 A3039 RMK A01 T10511105  RH  066%=      5-min Rain = 0
KES1 140720Z 07007KT M05/M11 A3039 RMK A01 T10511106  RH  066%=      5-min Rain = 0
KES1 140721Z 07008KT M05/M11 A3039 RMK A01 T10511106  RH  066%=      5-min Rain = 0
KES1 140722Z 07007KT M05/M11 A3039 RMK A01 T10511106  RH  065%=      5-min Rain = 0
KES1 140723Z 07007KT M05/M11 A3039 RMK A01 T10511106  RH  065%=      5-min Rain = 0
KES1 140724Z 07007KT M05/M11 A3039 RMK A01 T10511106  RH  065%=      5-min Rain = 0
KES1 140725Z 07007KT M05/M11 A3039 RMK A01 T10511105  RH  066%=      5-min Rain = 0
KES1 140726Z 08007KT M05/M11 A3039 RMK A01 T10511106  RH  066%=      5-min Rain = 0
KES1 140727Z 07007KT M05/M11 A3039 RMK A01 T10511106  RH  066%=      5-min Rain = 0
KES1 140728Z 07006KT M05/M11 A3039 RMK A01 T10511105  RH  066%=      5-min Rain = 0
KES1 140729Z 07006KT M05/M11 A3039 RMK A01 T10521105  RH  066%=      5-min Rain = 0
KES1 140730Z 08007KT M05/M11 A3039 RMK A01 T10521105  RH  067%=      5-min Rain = 0
KES1 140731Z 08006KT M05/M11 A3039 RMK A01 T10521105  RH  067%=      5-min Rain = 0
KES1 140732Z 08007KT M05/M10 A3039 RMK A01 T10531104  RH  067%=      5-min Rain = 0
KES1 140733Z 08006KT M05/M10 A3039 RMK A01 T10531104  RH  067%=      5-min Rain = 0
KES1 140734Z 08005KT M05/M10 A3039 RMK A01 T10531104  RH  067%=      5-min Rain = 0
KES1 140735Z 07005KT M05/M10 A3039 RMK A01 T10531104  RH  068%=      5-min Rain = 0
KES1 140736Z 07005KT M05/M10 A304 RMK A01 T10531103  RH  068%=      5-min Rain = 0
KES1 140737Z 07005KT M05/M10 A3039 RMK A01 T10541103  RH  068%=      5-min Rain = 0
KES1 140738Z 07005KT M05/M10 A3039 RMK A01 T10541104  RH  068%=      5-min Rain = 0
KES1 140739Z 07006KT M05/M10 A3039 RMK A01 T10541103  RH  068%=      5-min Rain = 0
KES1 140740Z 08005KT M05/M10 A3039 RMK A01 T10541103  RH  068%=      5-min Rain = 0
KES1 140741Z 07005KT M05/M10 A3039 RMK A01 T10541103  RH  069%=      5-min Rain = 0
KES1 140742Z 07005KT M05/M10 A3039 RMK A01 T10541103  RH  069%=      5-min Rain = 0
KES1 140743Z 07005KT M05/M10 A3039 RMK A01 T10541103  RH  069%=      5-min Rain = 0
KES1 140744Z 07005KT M06/M10 A3039 RMK A01 T10551103  RH  069%=      5-min Rain = 0
KES1 140745Z 07005KT M05/M10 A3039 RMK A01 T10541102  RH  069%=      5-min Rain = 0
KES1 140746Z 07004KT M06/M10 A3039 RMK A01 T10551103  RH  069%=      5-min Rain = 0
KES1 140747Z 07004KT M06/M10 A3039 RMK A01 T10551103  RH  069%=      5-min Rain = 0
KES1 140748Z 07004KT M06/M10 A3039 RMK A01 T10551102  RH  069%=      5-min Rain = 0
KES1 140749Z 07004KT M06/M10 A3039 RMK A01 T10551102  RH  069%=      5-min Rain = 0
KES1 140750Z 07004KT M06/M10 A3039 RMK A01 T10561102  RH  070%=      5-min Rain = 0
KES1 140751Z 07003KT M06/M10 A3039 RMK A01 T10561102  RH  070%=      5-min Rain = 0
KES1 140752Z 07004KT M06/M10 A3039 RMK A01 T10561102  RH  070%=      5-min Rain = 0
KES1 140753Z 08004KT M06/M10 A3039 RMK A01 T10561102  RH  070%=      5-min Rain = 0
KES1 140754Z 08004KT M06/M10 A3039 RMK A01 T10561102  RH  070%=      5-min Rain = 0
KES1 140755Z 07004KT M06/M10 A3039 RMK A01 T10571102  RH  070%=      5-min Rain = 0
KES1 140756Z 07004KT M06/M10 A3039 RMK A01 T10571102  RH  071%=      5-min Rain = 0
KES1 140757Z 07004KT M06/M10 A3039 RMK A01 T10581102  RH  071%=      5-min Rain = 0
KES1 140758Z 07004KT M06/M10 A3039 RMK A01 T10581102  RH  071%=      5-min Rain = 0
KES1 140759Z 08004KT M06/M10 A3039 RMK A01 T10581102  RH  071%=      5-min Rain = 0
KES1 140800Z 07003KT M06/M10 A3039 RMK A01 T10581102  RH  071%=      5-min Rain = 0
KES1 140801Z 08003KT M06/M10 A3039 RMK A01 T10581102  RH  071%=      5-min Rain = 0
KES1 140802Z 08004KT M06/M10 A3039 RMK A01 T10581102  RH  071%=      5-min Rain = 0
KES1 140803Z 08004KT M06/M10 A3039 RMK A01 T10581102  RH  071%=      5-min Rain = 0
KES1 140804Z 08004KT M06/M10 A3039 RMK A01 T10591102  RH  071%=      5-min Rain = 0
KES1 140805Z 08004KT M06/M10 A3039 RMK A01 T10591102  RH  072%=      5-min Rain = 0
KES1 140806Z 08004KT M06/M10 A3039 RMK A01 T10591102  RH  072%=      5-min Rain = 0
KES1 140807Z 08004KT M06/M10 A304 RMK A01 T10591102  RH  072%=      5-min Rain = 0
KES1 140808Z 08003KT M06/M10 A304 RMK A01 T10591102  RH  072%=      5-min Rain = 0
KES1 140809Z 08003KT M06/M10 A304 RMK A01 T10591102  RH  072%=      5-min Rain = 0
KES1 140810Z 08003KT M06/M10 A304 RMK A01 T10591102  RH  072%=      5-min Rain = 0
KES1 140811Z 08003KT M06/M10 A304 RMK A01 T10591101  RH  072%=      5-min Rain = 0
KES1 140812Z 08003KT M06/M10 A304 RMK A01 T10591101  RH  072%=      5-min Rain = 0
KES1 140813Z 08003KT M06/M10 A304 RMK A01 T10581101  RH  072%=      5-min Rain = 0
KES1 140814Z 08003KT M06/M10 A304 RMK A01 T10581101  RH  072%=      5-min Rain = 0
KES1 140815Z 09003KT M06/M10 A3039 RMK A01 T10591101  RH  072%=      5-min Rain = 0
KES1 140816Z 09004KT M06/M10 A3039 RMK A01 T10591102  RH  072%=      5-min Rain = 0
KES1 140817Z 09004KT M06/M10 A3039 RMK A01 T10601102  RH  072%=      5-min Rain = 0
KES1 140818Z 09004KT M06/M10 A3039 RMK A01 T10611103  RH  073%=      5-min Rain = 0
KES1 140819Z 09004KT M06/M10 A3039 RMK A01 T10621102  RH  073%=      5-min Rain = 0
KES1 140820Z 09004KT M06/M10 A304 RMK A01 T10631102  RH  074%=      5-min Rain = 0
KES1 140821Z 09004KT M06/M10 A304 RMK A01 T10631102  RH  074%=      5-min Rain = 0
KES1 140822Z 09004KT M06/M10 A304 RMK A01 T10621101  RH  074%=      5-min Rain = 0
KES1 140823Z 09003KT M06/M10 A304 RMK A01 T10621101  RH  074%=      5-min Rain = 0
KES1 140824Z 08003KT M06/M10 A304 RMK A01 T10621101  RH  074%=      5-min Rain = 0
KES1 140825Z 09003KT M06/M10 A304 RMK A01 T10611101  RH  073%=      5-min Rain = 0
KES1 140826Z 09004KT M06/M10 A304 RMK A01 T10611101  RH  073%=      5-min Rain = 0
KES1 140827Z 09003KT M06/M10 A304 RMK A01 T10611101  RH  073%=      5-min Rain = 0
KES1 140828Z 09003KT M06/M10 A304 RMK A01 T10611102  RH  073%=      5-min Rain = 0
KES1 140829Z 09003KT M06/M10 A304 RMK A01 T10611102  RH  073%=      5-min Rain = 0
KES1 140830Z 09003KT M06/M10 A304 RMK A01 T10611102  RH  073%=      5-min Rain = 0
KES1 140831Z 08003KT M06/M10 A304 RMK A01 T10611102  RH  073%=      5-min Rain = 0
KES1 140832Z 08003KT M06/M10 A304 RMK A01 T10601102  RH  073%=      5-min Rain = 0
KES1 140833Z 09003KT M06/M10 A304 RMK A01 T10611102  RH  072%=      5-min Rain = 0
KES1 140834Z 09003KT M06/M10 A304 RMK A01 T10611102  RH  072%=      5-min Rain = 0
KES1 140835Z 09003KT M06/M10 A304 RMK A01 T10611103  RH  072%=      5-min Rain = 0
KES1 140836Z 08003KT M06/M10 A304 RMK A01 T10611102  RH  072%=      5-min Rain = 0
KES1 140837Z 09003KT M06/M10 A304 RMK A01 T10611102  RH  072%=      5-min Rain = 0
KES1 140838Z 09003KT M06/M10 A304 RMK A01 T10611102  RH  072%=      5-min Rain = 0
KES1 140839Z 09003KT M06/M10 A304 RMK A01 T10611102  RH  073%=      5-min Rain = 0
KES1 140840Z 09004KT M06/M10 A304 RMK A01 T10611102  RH  073%=      5-min Rain = 0
KES1 140841Z 08004KT M06/M10 A304 RMK A01 T10611102  RH  073%=      5-min Rain = 0
KES1 140842Z 08004KT M06/M10 A304 RMK A01 T10611102  RH  073%=      5-min Rain = 0
KES1 140843Z 08003KT M06/M10 A304 RMK A01 T10611102  RH  073%=      5-min Rain = 0
KES1 140844Z 08003KT M06/M10 A304 RMK A01 T10611102  RH  073%=      5-min Rain = 0
KES1 140845Z 07003KT M06/M10 A304 RMK A01 T10611102  RH  073%=      5-min Rain = 0
KES1 140846Z 07003KT M06/M10 A304 RMK A01 T10611101  RH  073%=      5-min Rain = 0
KES1 140847Z 08003KT M06/M10 A304 RMK A01 T10621102  RH  073%=      5-min Rain = 0
KES1 140848Z 08003KT M06/M10 A304 RMK A01 T10611101  RH  073%=      5-min Rain = 0
KES1 140849Z 08003KT M06/M10 A304 RMK A01 T10621102  RH  073%=      5-min Rain = 0
KES1 140850Z 07003KT M06/M10 A304 RMK A01 T10621102  RH  073%=      5-min Rain = 0
KES1 140851Z 07003KT M06/M10 A304 RMK A01 T10621102  RH  073%=      5-min Rain = 0
KES1 140852Z 07003KT M06/M10 A304 RMK A01 T10611101  RH  073%=      5-min Rain = 0
KES1 140853Z 06003KT M06/M10 A304 RMK A01 T10611101  RH  073%=      5-min Rain = 0
KES1 140854Z 06002KT M06/M10 A304 RMK A01 T10621101  RH  074%=      5-min Rain = 0
KES1 140855Z 06003KT M06/M10 A304 RMK A01 T10621101  RH  074%=      5-min Rain = 0
KES1 140856Z 05002KT M06/M10 A304 RMK A01 T10621101  RH  074%=      5-min Rain = 0
KES1 140857Z 05002KT M06/M10 A304 RMK A01 T10621101  RH  074%=      5-min Rain = 0
KES1 140858Z 05002KT M06/M10 A304 RMK A01 T10621100  RH  074%=      5-min Rain = 0
KES1 140859Z 05002KT M06/M10 A304 RMK A01 T10611099  RH  075%=      5-min Rain = 0
KES1 140900Z 05002KT M06/M10 A304 RMK A01 T10621098  RH  075%=      5-min Rain = 0
KES1 140901Z 05002KT M06/M10 A304 RMK A01 T10621098  RH  075%=      5-min Rain = 0
KES1 140902Z 04002KT M06/M10 A304 RMK A01 T10611098  RH  075%=      5-min Rain = 0
KES1 140903Z 05002KT M06/M10 A304 RMK A01 T10611097  RH  076%=      5-min Rain = 0
KES1 140904Z 05002KT M06/M10 A304 RMK A01 T10611095  RH  077%=      5-min Rain = 0
KES1 140905Z 05001KT M06/M09 A304 RMK A01 T10611093  RH  078%=      5-min Rain = 0
KES1 140906Z 05001KT M06/M09 A304 RMK A01 T10611092  RH  078%=      5-min Rain = 0
KES1 140907Z 05002KT M06/M09 A304 RMK A01 T10611094  RH  078%=      5-min Rain = 0
KES1 140908Z 04002KT M06/M10 A304 RMK A01 T10621095  RH  078%=      5-min Rain = 0
KES1 140909Z 04002KT M06/M09 A304 RMK A01 T10621094  RH  078%=      5-min Rain = 0
KES1 140910Z 05002KT M06/M09 A304 RMK A01 T10621094  RH  078%=      5-min Rain = 0
KES1 140911Z 05002KT M06/M09 A304 RMK A01 T10621094  RH  078%=      5-min Rain = 0
KES1 140912Z 05002KT M06/M10 A304 RMK A01 T10621095  RH  078%=      5-min Rain = 0
KES1 140913Z 04002KT M06/M10 A304 RMK A01 T10621097  RH  076%=      5-min Rain = 0
KES1 140914Z 05002KT M06/M10 A304 RMK A01 T10621098  RH  075%=      5-min Rain = 0
KES1 140915Z 05001KT M06/M10 A304 RMK A01 T10621099  RH  075%=      5-min Rain = 0
KES1 140916Z 06001KT M06/M10 A304 RMK A01 T10621099  RH  075%=      5-min Rain = 0
KES1 140917Z 06001KT M06/M10 A304 RMK A01 T10631099  RH  075%=      5-min Rain = 0
KES1 140918Z 06001KT M06/M10 A304 RMK A01 T10631099  RH  075%=      5-min Rain = 0
KES1 140919Z 06001KT M06/M10 A304 RMK A01 T10631100  RH  075%=      5-min Rain = 0
KES1 140920Z 05001KT M06/M10 A304 RMK A01 T10631100  RH  075%=      5-min Rain = 0
KES1 140921Z 04001KT M06/M10 A304 RMK A01 T10621099  RH  075%=      5-min Rain = 0
KES1 140922Z 03001KT M06/M10 A304 RMK A01 T10631099  RH  076%=      5-min Rain = 0
KES1 140923Z 03002KT M06/M10 A304 RMK A01 T10631099  RH  076%=      5-min Rain = 0
KES1 140924Z 03002KT M06/M10 A304 RMK A01 T10621098  RH  076%=      5-min Rain = 0
KES1 140925Z 03001KT M06/M10 A304 RMK A01 T10621097  RH  076%=      5-min Rain = 0
KES1 140926Z 02002KT M06/M10 A304 RMK A01 T10621096  RH  077%=      5-min Rain = 0
KES1 140927Z 02001KT M06/M10 A304 RMK A01 T10621096  RH  077%=      5-min Rain = 0
KES1 140928Z 01002KT M06/M10 A304 RMK A01 T10621096  RH  077%=      5-min Rain = 0
KES1 140929Z 01002KT M06/M10 A304 RMK A01 T10611095  RH  077%=      5-min Rain = 0
KES1 140930Z 01002KT M06/M10 A304 RMK A01 T10621095  RH  077%=      5-min Rain = 0
KES1 140931Z 02002KT M06/M10 A304 RMK A01 T10621095  RH  077%=      5-min Rain = 0
KES1 140932Z 01002KT M06/M10 A304 RMK A01 T10621095  RH  077%=      5-min Rain = 0
KES1 140933Z 02002KT M06/M09 A304 RMK A01 T10621094  RH  078%=      5-min Rain = 0
KES1 140934Z 02001KT M06/M09 A304 RMK A01 T10621093  RH  078%=      5-min Rain = 0
KES1 140935Z 02002KT M06/M09 A304 RMK A01 T10621092  RH  079%=      5-min Rain = 0
KES1 140936Z 02001KT M06/M09 A304 RMK A01 T10621091  RH  080%=      5-min Rain = 0
KES1 140937Z 01002KT M06/M09 A304 RMK A01 T10621091  RH  080%=      5-min Rain = 0
KES1 140938Z 01002KT M06/M09 A304 RMK A01 T10621091  RH  080%=      5-min Rain = 0
KES1 140939Z 01002KT M06/M09 A304 RMK A01 T10621090  RH  081%=      5-min Rain = 0
KES1 140940Z 01002KT M06/M09 A304 RMK A01 T10621090  RH  080%=      5-min Rain = 0
KES1 140941Z 01002KT M06/M09 A304 RMK A01 T10621091  RH  080%=      5-min Rain = 0
KES1 140942Z 01002KT M06/M09 A304 RMK A01 T10621091  RH  080%=      5-min Rain = 0
KES1 140943Z 01002KT M06/M09 A304 RMK A01 T10621091  RH  080%=      5-min Rain = 0
KES1 140944Z 01002KT M06/M09 A304 RMK A01 T10621091  RH  080%=      5-min Rain = 0
KES1 140945Z 02003KT M06/M09 A304 RMK A01 T10621092  RH  079%=      5-min Rain = 0
KES1 140946Z 02003KT M06/M09 A304 RMK A01 T10621093  RH  079%=      5-min Rain = 0
KES1 140947Z 02003KT M06/M09 A304 RMK A01 T10621093  RH  079%=      5-min Rain = 0
KES1 140948Z 03003KT M06/M09 A304 RMK A01 T10621094  RH  078%=      5-min Rain = 0
KES1 140949Z 03003KT M06/M10 A304 RMK A01 T10621096  RH  077%=      5-min Rain = 0
KES1 140950Z 03003KT M06/M10 A304 RMK A01 T10621097  RH  077%=      5-min Rain = 0
KES1 140951Z 03003KT M06/M10 A304 RMK A01 T10621097  RH  077%=      5-min Rain = 0
KES1 140952Z 03003KT M06/M10 A304 RMK A01 T10631097  RH  077%=      5-min Rain = 0
KES1 140953Z 04003KT M06/M10 A304 RMK A01 T10631097  RH  077%=      5-min Rain = 0
KES1 140954Z 04003KT M06/M10 A304 RMK A01 T10641098  RH  077%=      5-min Rain = 0
KES1 140955Z 04003KT M07/M10 A304 RMK A01 T10651098  RH  077%=      5-min Rain = 0
KES1 140956Z 04003KT M07/M10 A304 RMK A01 T10651098  RH  077%=      5-min Rain = 0
KES1 140957Z 04003KT M07/M10 A304 RMK A01 T10661098  RH  078%=      5-min Rain = 0
KES1 140958Z 04003KT M07/M10 A304 RMK A01 T10661098  RH  078%=      5-min Rain = 0
KES1 140959Z 04003KT M07/M10 A304 RMK A01 T10661098  RH  078%=      5-min Rain = 0
KES1 141000Z 04004KT M07/M10 A304 RMK A01 T10661097  RH  079%=      5-min Rain = 0
KES1 141001Z 04004KT M07/M10 A304 RMK A01 T10671098  RH  079%=      5-min Rain = 0
KES1 141002Z 04004KT M07/M10 A304 RMK A01 T10681097  RH  079%=      5-min Rain = 0
KES1 141003Z 04004KT M07/M10 A304 RMK A01 T10681097  RH  080%=      5-min Rain = 0
KES1 141004Z 04004KT M07/M10 A304 RMK A01 T10681097  RH  080%=      5-min Rain = 0
KES1 141005Z 04004KT M07/M10 A304 RMK A01 T10681098  RH  080%=      5-min Rain = 0
KES1 141006Z 04004KT M07/M10 A304 RMK A01 T10681099  RH  079%=      5-min Rain = 0
KES1 141007Z 04004KT M07/M10 A304 RMK A01 T10681099  RH  079%=      5-min Rain = 0
KES1 141008Z 04004KT M07/M10 A304 RMK A01 T10681099  RH  078%=      5-min Rain = 0
KES1 141009Z 04004KT M07/M10 A304 RMK A01 T10681100  RH  078%=      5-min Rain = 0
KES1 141010Z 04004KT M07/M10 A304 RMK A01 T10681100  RH  078%=      5-min Rain = 0
KES1 141011Z 04004KT M07/M10 A304 RMK A01 T10681100  RH  078%=      5-min Rain = 0
KES1 141012Z 04004KT M07/M10 A304 RMK A01 T10681100  RH  078%=      5-min Rain = 0
KES1 141013Z 05004KT M07/M10 A304 RMK A01 T10681100  RH  078%=      5-min Rain = 0
KES1 141014Z 05004KT M07/M10 A304 RMK A01 T10681100  RH  078%=      5-min Rain = 0
KES1 141015Z 05004KT M07/M10 A304 RMK A01 T10681100  RH  078%=      5-min Rain = 0
KES1 141016Z 05003KT M07/M10 A304 RMK A01 T10681100  RH  078%=      5-min Rain = 0
KES1 141017Z 05004KT M07/M10 A304 RMK A01 T10691100  RH  079%=      5-min Rain = 0
KES1 141018Z 05003KT M07/M10 A304 RMK A01 T10701100  RH  079%=      5-min Rain = 0
KES1 141019Z 05003KT M07/M10 A304 RMK A01 T10701099  RH  080%=      5-min Rain = 0
KES1 141020Z 06003KT M07/M10 A304 RMK A01 T10711099  RH  080%=      5-min Rain = 0
KES1 141021Z 06003KT M07/M10 A304 RMK A01 T10721099  RH  081%=      5-min Rain = 0
KES1 141022Z 05003KT M07/M10 A304 RMK A01 T10721098  RH  082%=      5-min Rain = 0
KES1 141023Z 05003KT M07/M10 A304 RMK A01 T10721098  RH  082%=      5-min Rain = 0
KES1 141024Z 05003KT M07/M10 A304 RMK A01 T10721097  RH  082%=      5-min Rain = 0
KES1 141025Z 05003KT M07/M10 A304 RMK A01 T10721097  RH  082%=      5-min Rain = 0
KES1 141026Z 05002KT M07/M10 A304 RMK A01 T10721097  RH  082%=      5-min Rain = 0
KES1 141027Z 05002KT M07/M10 A304 RMK A01 T10711097  RH  082%=      5-min Rain = 0
KES1 141028Z 05003KT M07/M10 A304 RMK A01 T10711097  RH  082%=      5-min Rain = 0
KES1 141029Z 05003KT M07/M10 A304 RMK A01 T10711097  RH  082%=      5-min Rain = 0
KES1 141030Z 06002KT M07/M10 A304 RMK A01 T10711098  RH  081%=      5-min Rain = 0
KES1 141031Z 06003KT M07/M10 A304 RMK A01 T10711099  RH  081%=      5-min Rain = 0
KES1 141032Z 06003KT M07/M10 A304 RMK A01 T10711099  RH  080%=      5-min Rain = 0
KES1 141033Z 06003KT M07/M10 A304 RMK A01 T10711099  RH  080%=      5-min Rain = 0
KES1 141034Z 06002KT M07/M10 A304 RMK A01 T10711099  RH  081%=      5-min Rain = 0
KES1 141035Z 06002KT M07/M10 A304 RMK A01 T10721099  RH  081%=      5-min Rain = 0
KES1 141036Z 06002KT M07/M10 A304 RMK A01 T10721099  RH  081%=      5-min Rain = 0
KES1 141037Z 06002KT M07/M10 A304 RMK A01 T10721099  RH  081%=      5-min Rain = 0
KES1 141038Z 06002KT M07/M10 A304 RMK A01 T10721099  RH  081%=      5-min Rain = 0
KES1 141039Z 06002KT M07/M10 A304 RMK A01 T10721099  RH  081%=      5-min Rain = 0
KES1 141040Z 06002KT M07/M10 A304 RMK A01 T10721099  RH  081%=      5-min Rain = 0
KES1 141041Z 06002KT M07/M10 A304 RMK A01 T10721099  RH  081%=      5-min Rain = 0
KES1 141042Z 06002KT M07/M10 A304 RMK A01 T10721099  RH  081%=      5-min Rain = 0
KES1 141043Z 06002KT M07/M10 A304 RMK A01 T10721098  RH  082%=      5-min Rain = 0
KES1 141044Z 06002KT M07/M10 A304 RMK A01 T10721098  RH  082%=      5-min Rain = 0
KES1 141045Z 06002KT M07/M10 A304 RMK A01 T10721099  RH  081%=      5-min Rain = 0
KES1 141046Z 06002KT M07/M10 A304 RMK A01 T10721100  RH  081%=      5-min Rain = 0
KES1 141047Z 06002KT M07/M10 A304 RMK A01 T10711100  RH  080%=      5-min Rain = 0
KES1 141048Z 06002KT M07/M10 A304 RMK A01 T10711100  RH  080%=      5-min Rain = 0
KES1 141049Z 07002KT M07/M10 A304 RMK A01 T10711100  RH  080%=      5-min Rain = 0
KES1 141050Z 07002KT M07/M10 A304 RMK A01 T10711100  RH  080%=      5-min Rain = 0
KES1 141051Z 06002KT M07/M10 A304 RMK A01 T10711100  RH  080%=      5-min Rain = 0
KES1 141052Z 06002KT M07/M10 A304 RMK A01 T10721100  RH  081%=      5-min Rain = 0
KES1 141053Z 06002KT M07/M10 A304 RMK A01 T10721099  RH  081%=      5-min Rain = 0
KES1 141054Z 06002KT M07/M10 A304 RMK A01 T10721099  RH  081%=      5-min Rain = 0
KES1 141055Z 06002KT M07/M10 A304 RMK A01 T10721100  RH  080%=      5-min Rain = 0
KES1 141056Z 06002KT M07/M10 A304 RMK A01 T10721100  RH  080%=      5-min Rain = 0
KES1 141057Z 06002KT M07/M10 A304 RMK A01 T10721101  RH  080%=      5-min Rain = 0
KES1 141058Z 06002KT M07/M10 A304 RMK A01 T10721101  RH  080%=      5-min Rain = 0
KES1 141059Z 06002KT M07/M10 A304 RMK A01 T10711101  RH  080%=      5-min Rain = 0
KES1 141100Z 07002KT M07/M10 A304 RMK A01 T10721101  RH  080%=      5-min Rain = 0
KES1 141101Z 07002KT M07/M10 A304 RMK A01 T10721101  RH  080%=      5-min Rain = 0
KES1 141102Z 06002KT M07/M10 A304 RMK A01 T10711100  RH  080%=      5-min Rain = 0
KES1 141103Z 06002KT M07/M10 A304 RMK A01 T10711100  RH  080%=      5-min Rain = 0
KES1 141104Z 06002KT M07/M10 A304 RMK A01 T10711100  RH  080%=      5-min Rain = 0
KES1 141105Z 06002KT M07/M10 A304 RMK A01 T10711099  RH  080%=      5-min Rain = 0
KES1 141106Z 06002KT M07/M10 A304 RMK A01 T10711099  RH  081%=      5-min Rain = 0
KES1 141107Z 06002KT M07/M10 A304 RMK A01 T10721098  RH  082%=      5-min Rain = 0
KES1 141108Z 07002KT M07/M10 A304 RMK A01 T10731099  RH  082%=      5-min Rain = 0
KES1 141109Z 06002KT M07/M10 A304 RMK A01 T10731099  RH  082%=      5-min Rain = 0
KES1 141110Z 06002KT M07/M10 A304 RMK A01 T10731099  RH  081%=      5-min Rain = 0
KES1 141111Z 06002KT M07/M10 A304 RMK A01 T10731099  RH  081%=      5-min Rain = 0
KES1 141112Z 05002KT M07/M10 A304 RMK A01 T10721099  RH  081%=      5-min Rain = 0
KES1 141113Z 06002KT M07/M10 A304 RMK A01 T10731100  RH  081%=      5-min Rain = 0
KES1 141114Z 06002KT M07/M10 A304 RMK A01 T10721100  RH  081%=      5-min Rain = 0
KES1 141115Z 06002KT M07/M10 A304 RMK A01 T10721100  RH  080%=      5-min Rain = 0
KES1 141116Z 06002KT M07/M10 A304 RMK A01 T10711100  RH  080%=      5-min Rain = 0
KES1 141117Z 05002KT M07/M10 A304 RMK A01 T10711100  RH  080%=      5-min Rain = 0
KES1 141118Z 05002KT M07/M10 A304 RMK A01 T10711100  RH  080%=      5-min Rain = 0
KES1 141119Z 05002KT M07/M10 A304 RMK A01 T10711099  RH  080%=      5-min Rain = 0
KES1 141120Z 05002KT M07/M10 A304 RMK A01 T10711100  RH  080%=      5-min Rain = 0
KES1 141121Z 05002KT M07/M10 A304 RMK A01 T10711100  RH  080%=      5-min Rain = 0
KES1 141122Z 05002KT M07/M10 A304 RMK A01 T10711100  RH  080%=      5-min Rain = 0
KES1 141123Z 05002KT M07/M10 A304 RMK A01 T10711100  RH  080%=      5-min Rain = 0
KES1 141124Z 05002KT M07/M10 A304 RMK A01 T10711100  RH  080%=      5-min Rain = 0
KES1 141125Z 05003KT M07/M10 A304 RMK A01 T10711100  RH  080%=      5-min Rain = 0
KES1 141126Z 06003KT M07/M10 A304 RMK A01 T10721099  RH  081%=      5-min Rain = 0
KES1 141127Z 06003KT M07/M10 A304 RMK A01 T10721098  RH  082%=      5-min Rain = 0
KES1 141128Z 05003KT M07/M10 A304 RMK A01 T10731097  RH  083%=      5-min Rain = 0
KES1 141129Z 06003KT M07/M10 A304 RMK A01 T10741096  RH  084%=      5-min Rain = 0
KES1 141130Z 06003KT M08/M10 A304 RMK A01 T10751096  RH  085%=      5-min Rain = 0
KES1 141131Z 06002KT M07/M10 A304 RMK A01 T10741096  RH  085%=      5-min Rain = 0
KES1 141132Z 05002KT M07/M10 A304 RMK A01 T10741096  RH  085%=      5-min Rain = 0
KES1 141133Z 06002KT M07/M10 A304 RMK A01 T10741096  RH  085%=      5-min Rain = 0
KES1 141134Z 06003KT M07/M10 A304 RMK A01 T10741096  RH  085%=      5-min Rain = 0
KES1 141135Z 06002KT M08/M10 A304 RMK A01 T10751097  RH  084%=      5-min Rain = 0
KES1 141136Z 06002KT M07/M10 A304 RMK A01 T10741097  RH  084%=      5-min Rain = 0
KES1 141137Z 06002KT M07/M10 A304 RMK A01 T10741097  RH  084%=      5-min Rain = 0
KES1 141138Z 06002KT M07/M10 A304 RMK A01 T10741097  RH  084%=      5-min Rain = 0
KES1 141139Z 06002KT M07/M10 A304 RMK A01 T10741097  RH  083%=      5-min Rain = 0
KES1 141140Z 05002KT M07/M10 A304 RMK A01 T10741097  RH  083%=      5-min Rain = 0
KES1 141141Z 05002KT M07/M10 A304 RMK A01 T10731098  RH  083%=      5-min Rain = 0
KES1 141142Z 05002KT M07/M10 A304 RMK A01 T10731099  RH  082%=      5-min Rain = 0
KES1 141143Z 05002KT M07/M10 A304 RMK A01 T10731099  RH  082%=      5-min Rain = 0
KES1 141144Z 05002KT M07/M10 A304 RMK A01 T10731100  RH  081%=      5-min Rain = 0
KES1 141145Z 05002KT M07/M10 A304 RMK A01 T10731100  RH  081%=      5-min Rain = 0
KES1 141146Z 05002KT M07/M10 A304 RMK A01 T10721100  RH  080%=      5-min Rain = 0
KES1 141147Z 05002KT M07/M10 A304 RMK A01 T10721101  RH  080%=      5-min Rain = 0
KES1 141148Z 05002KT M07/M10 A304 RMK A01 T10721101  RH  080%=      5-min Rain = 0
KES1 141149Z 06001KT M07/M10 A304 RMK A01 T10721101  RH  079%=      5-min Rain = 0
KES1 141150Z 06002KT M07/M10 A304 RMK A01 T10721101  RH  079%=      5-min Rain = 0
KES1 141151Z 06001KT M07/M10 A304 RMK A01 T10721101  RH  079%=      5-min Rain = 0
KES1 141152Z 06002KT M07/M10 A304 RMK A01 T10711101  RH  080%=      5-min Rain = 0
KES1 141153Z 06001KT M07/M10 A304 RMK A01 T10721100  RH  080%=      5-min Rain = 0
KES1 141154Z 07001KT M07/M10 A304 RMK A01 T10721100  RH  080%=      5-min Rain = 0
KES1 141155Z 06001KT M07/M10 A304 RMK A01 T10721100  RH  080%=      5-min Rain = 0
KES1 141156Z 06001KT M07/M10 A304 RMK A01 T10721100  RH  080%=      5-min Rain = 0
KES1 141157Z 06002KT M07/M10 A304 RMK A01 T10721100  RH  080%=      5-min Rain = 0
KES1 141158Z 06002KT M07/M10 A304 RMK A01 T10721100  RH  080%=      5-min Rain = 0
KES1 141159Z 06002KT M07/M10 A304 RMK A01 T10721100  RH  080%=      5-min Rain = 0
KES1 141200Z 07002KT M07/M10 A304 RMK A01 T10721100  RH  080%=      5-min Rain = 0
KES1 141201Z 07002KT M07/M10 A304 RMK A01 T10721100  RH  081%=      5-min Rain = 0
KES1 141202Z 06002KT M07/M10 A304 RMK A01 T10721100  RH  081%=      5-min Rain = 0
KES1 141203Z 06002KT M07/M10 A304 RMK A01 T10721099  RH  081%=      5-min Rain = 0
KES1 141204Z 06002KT M07/M10 A304 RMK A01 T10731099  RH  082%=      5-min Rain = 0
KES1 141205Z 06002KT M07/M10 A304 RMK A01 T10741099  RH  082%=      5-min Rain = 0
KES1 141206Z 06002KT M07/M10 A304 RMK A01 T10741099  RH  082%=      5-min Rain = 0
KES1 141207Z 06002KT M07/M10 A304 RMK A01 T10741099  RH  082%=      5-min Rain = 0
KES1 141208Z 06002KT M08/M10 A304 RMK A01 T10751099  RH  083%=      5-min Rain = 0
KES1 141209Z 06002KT M08/M10 A304 RMK A01 T10751099  RH  083%=      5-min Rain = 0
KES1 141210Z 06002KT M08/M10 A304 RMK A01 T10751099  RH  083%=      5-min Rain = 0
KES1 141211Z 06002KT M08/M10 A304 RMK A01 T10751099  RH  083%=      5-min Rain = 0
KES1 141212Z 06002KT M08/M10 A304 RMK A01 T10751099  RH  083%=      5-min Rain = 0
KES1 141213Z 07002KT M08/M10 A304 RMK A01 T10751099  RH  083%=      5-min Rain = 0
KES1 141214Z 07002KT M08/M10 A304 RMK A01 T10751099  RH  084%=      5-min Rain = 0
KES1 141215Z 07002KT M08/M10 A304 RMK A01 T10761098  RH  084%=      5-min Rain = 0
KES1 141216Z 07002KT M08/M10 A304 RMK A01 T10761098  RH  084%=      5-min Rain = 0
KES1 141217Z 07002KT M08/M10 A304 RMK A01 T10761098  RH  084%=      5-min Rain = 0
KES1 141218Z 07002KT M08/M10 A304 RMK A01 T10771098  RH  085%=      5-min Rain = 0
KES1 141219Z 07002KT M08/M10 A304 RMK A01 T10771098  RH  084%=      5-min Rain = 0
KES1 141220Z 07002KT M08/M10 A304 RMK A01 T10761099  RH  084%=      5-min Rain = 0
KES1 141221Z 07002KT M08/M10 A304 RMK A01 T10761099  RH  084%=      5-min Rain = 0
KES1 141222Z 07002KT M08/M10 A304 RMK A01 T10761099  RH  084%=      5-min Rain = 0
KES1 141223Z 07002KT M08/M10 A304 RMK A01 T10761099  RH  084%=      5-min Rain = 0
KES1 141224Z 06002KT M08/M10 A304 RMK A01 T10761098  RH  084%=      5-min Rain = 0
KES1 141225Z 06002KT M08/M10 A304 RMK A01 T10761098  RH  084%=      5-min Rain = 0
KES1 141226Z 05002KT M08/M10 A304 RMK A01 T10761099  RH  084%=      5-min Rain = 0
KES1 141227Z 05002KT M08/M10 A304 RMK A01 T10761099  RH  084%=      5-min Rain = 0
KES1 141228Z 05002KT M08/M10 A304 RMK A01 T10771100  RH  083%=      5-min Rain = 0
KES1 141229Z 05002KT M08/M10 A304 RMK A01 T10761100  RH  083%=      5-min Rain = 0
KES1 141230Z 05002KT M08/M10 A304 RMK A01 T10751101  RH  082%=      5-min Rain = 0
KES1 141231Z 05002KT M08/M10 A304 RMK A01 T10751101  RH  082%=      5-min Rain = 0
KES1 141232Z 05002KT M08/M10 A304 RMK A01 T10751101  RH  081%=      5-min Rain = 0
KES1 141233Z 05002KT M07/M10 A304 RMK A01 T10741101  RH  081%=      5-min Rain = 0
KES1 141234Z 05002KT M07/M10 A304 RMK A01 T10741101  RH  081%=      5-min Rain = 0
KES1 141235Z 05002KT M07/M10 A304 RMK A01 T10741102  RH  081%=      5-min Rain = 0
KES1 141236Z 04002KT M07/M10 A304 RMK A01 T10741102  RH  081%=      5-min Rain = 0
KES1 141237Z 04002KT M07/M10 A304 RMK A01 T10741101  RH  081%=      5-min Rain = 0
KES1 141238Z 04002KT M07/M10 A304 RMK A01 T10741101  RH  081%=      5-min Rain = 0
KES1 141239Z 04002KT M07/M10 A304 RMK A01 T10741101  RH  081%=      5-min Rain = 0
KES1 141240Z 04002KT M07/M10 A304 RMK A01 T10741101  RH  081%=      5-min Rain = 0
KES1 141241Z 03002KT M07/M10 A304 RMK A01 T10731100  RH  081%=      5-min Rain = 0
KES1 141242Z 03002KT M07/M10 A304 RMK A01 T10741100  RH  082%=      5-min Rain = 0
KES1 141243Z 03002KT M07/M10 A304 RMK A01 T10741098  RH  083%=      5-min Rain = 0
KES1 141244Z 03002KT M07/M10 A304 RMK A01 T10731097  RH  083%=      5-min Rain = 0
KES1 141245Z 03002KT M07/M10 A304 RMK A01 T10731096  RH  084%=      5-min Rain = 0
KES1 141246Z 03002KT M07/M10 A304 RMK A01 T10741096  RH  084%=      5-min Rain = 0
KES1 141247Z 03001KT M07/M10 A304 RMK A01 T10741096  RH  084%=      5-min Rain = 0
KES1 141248Z 03001KT M07/M10 A304 RMK A01 T10741095  RH  085%=      5-min Rain = 0
KES1 141249Z 03001KT M07/M09 A304 RMK A01 T10741094  RH  086%=      5-min Rain = 0
KES1 141250Z 02001KT M07/M09 A304 RMK A01 T10741094  RH  086%=      5-min Rain = 0
KES1 141251Z 02001KT M08/M10 A304 RMK A01 T10751095  RH  086%=      5-min Rain = 0
KES1 141252Z 02001KT M08/M10 A304 RMK A01 T10751095  RH  086%=      5-min Rain = 0
KES1 141253Z 02001KT M08/M10 A304 RMK A01 T10751095  RH  086%=      5-min Rain = 0
KES1 141254Z 02001KT M08/M10 A304 RMK A01 T10751095  RH  085%=      5-min Rain = 0
KES1 141255Z 01000KT M08/M10 A304 RMK A01 T10751096  RH  085%=      5-min Rain = 0
KES1 141256Z 01001KT M08/M10 A304 RMK A01 T10761098  RH  084%=      5-min Rain = 0
KES1 141257Z 01001KT M08/M10 A304 RMK A01 T10761098  RH  084%=      5-min Rain = 0
KES1 141258Z 01001KT M08/M10 A304 RMK A01 T10761099  RH  084%=      5-min Rain = 0
KES1 141259Z 01001KT M08/M10 A304 RMK A01 T10761099  RH  083%=      5-min Rain = 0
KES1 141300Z 01001KT M08/M10 A304 RMK A01 T10761100  RH  083%=      5-min Rain = 0
KES1 141301Z 01001KT M08/M10 A304 RMK A01 T10761100  RH  083%=      5-min Rain = 0
KES1 141302Z 02001KT M08/M10 A304 RMK A01 T10761100  RH  083%=      5-min Rain = 0
KES1 141303Z 01001KT M08/M10 A304 RMK A01 T10761100  RH  083%=      5-min Rain = 0
KES1 141304Z 01001KT M08/M10 A304 RMK A01 T10761100  RH  083%=      5-min Rain = 0
KES1 141305Z 02001KT M08/M10 A304 RMK A01 T10761100  RH  083%=      5-min Rain = 0
KES1 141306Z 02001KT M08/M10 A304 RMK A01 T10761100  RH  083%=      5-min Rain = 0
KES1 141307Z 03001KT M08/M10 A304 RMK A01 T10761099  RH  083%=      5-min Rain = 0
KES1 141308Z 03001KT M08/M10 A304 RMK A01 T10761100  RH  083%=      5-min Rain = 0
KES1 141309Z 03001KT M08/M10 A304 RMK A01 T10761100  RH  083%=      5-min Rain = 0
KES1 141310Z 03001KT M08/M10 A304 RMK A01 T10761100  RH  083%=      5-min Rain = 0
KES1 141311Z 03001KT M08/M10 A304 RMK A01 T10761100  RH  083%=      5-min Rain = 0
KES1 141312Z 04001KT M08/M10 A304 RMK A01 T10771100  RH  084%=      5-min Rain = 0
KES1 141313Z 04002KT M08/M10 A304 RMK A01 T10771100  RH  084%=      5-min Rain = 0
KES1 141314Z 05002KT M08/M10 A304 RMK A01 T10781100  RH  084%=      5-min Rain = 0
KES1 141315Z 05001KT M08/M10 A304 RMK A01 T10781100  RH  085%=      5-min Rain = 0
KES1 141316Z 05002KT M08/M10 A304 RMK A01 T10781099  RH  085%=      5-min Rain = 0
KES1 141317Z 05002KT M08/M10 A304 RMK A01 T10791099  RH  086%=      5-min Rain = 0
KES1 141318Z 05002KT M08/M10 A304 RMK A01 T10801099  RH  086%=      5-min Rain = 0
KES1 141319Z 05002KT M08/M10 A304 RMK A01 T10801098  RH  087%=      5-min Rain = 0
KES1 141320Z 05002KT M08/M10 A304 RMK A01 T10811098  RH  087%=      5-min Rain = 0
KES1 141321Z 05002KT M08/M10 A304 RMK A01 T10811098  RH  088%=      5-min Rain = 0
KES1 141322Z 05002KT M08/M10 A304 RMK A01 T10811097  RH  088%=      5-min Rain = 0
KES1 141323Z 05002KT M08/M10 A3041 RMK A01 T10801097  RH  088%=      5-min Rain = 0
KES1 141324Z 04002KT M08/M10 A3041 RMK A01 T10801097  RH  088%=      5-min Rain = 0
KES1 141325Z 05002KT M08/M10 A3041 RMK A01 T10801097  RH  088%=      5-min Rain = 0
KES1 141326Z 05002KT M08/M10 A3041 RMK A01 T10801097  RH  088%=      5-min Rain = 0
KES1 141327Z 05003KT M08/M10 A3041 RMK A01 T10801097  RH  088%=      5-min Rain = 0
KES1 141328Z 05003KT M08/M10 A3041 RMK A01 T10801097  RH  088%=      5-min Rain = 0
KES1 141329Z 05002KT M08/M10 A3041 RMK A01 T10801097  RH  088%=      5-min Rain = 0
KES1 141330Z 05002KT M08/M10 A3041 RMK A01 T10801097  RH  088%=      5-min Rain = 0
KES1 141331Z 05002KT M08/M10 A3041 RMK A01 T10791097  RH  087%=      5-min Rain = 0
KES1 141332Z 05002KT M08/M10 A3041 RMK A01 T10791097  RH  087%=      5-min Rain = 0
KES1 141333Z 05002KT M08/M10 A3041 RMK A01 T10791097  RH  087%=      5-min Rain = 0
KES1 141334Z 05002KT M08/M10 A3041 RMK A01 T10791097  RH  087%=      5-min Rain = 0
KES1 141335Z 05003KT M08/M10 A3041 RMK A01 T10781097  RH  087%=      5-min Rain = 0
KES1 141336Z 05002KT M08/M10 A3041 RMK A01 T10781096  RH  087%=      5-min Rain = 0
KES1 141337Z 05003KT M08/M10 A3041 RMK A01 T10771096  RH  087%=      5-min Rain = 0
KES1 141338Z 05003KT M08/M10 A3041 RMK A01 T10771095  RH  087%=      5-min Rain = 0
KES1 141339Z 05003KT M08/M10 A3041 RMK A01 T10761095  RH  087%=      5-min Rain = 0
KES1 141340Z 05002KT M08/M09 A3041 RMK A01 T10761094  RH  087%=      5-min Rain = 0
KES1 141341Z 05002KT M08/M09 A3041 RMK A01 T10751092  RH  087%=      5-min Rain = 0
KES1 141342Z 05002KT M07/M09 A3041 RMK A01 T10741092  RH  088%=      5-min Rain = 0
KES1 141343Z 05002KT M07/M09 A3041 RMK A01 T10741091  RH  087%=      5-min Rain = 0
KES1 141344Z 05002KT M07/M09 A3041 RMK A01 T10731090  RH  087%=      5-min Rain = 0
KES1 141345Z 06002KT M07/M09 A3041 RMK A01 T10711090  RH  087%=      5-min Rain = 0
KES1 141346Z 06002KT M07/M09 A3042 RMK A01 T10701089  RH  086%=      5-min Rain = 0
KES1 141347Z 07002KT M07/M09 A3042 RMK A01 T10691089  RH  086%=      5-min Rain = 0
KES1 141348Z 07001KT M07/M09 A3042 RMK A01 T10681089  RH  086%=      5-min Rain = 0
KES1 141349Z 07001KT M07/M09 A3042 RMK A01 T10671088  RH  085%=      5-min Rain = 0
KES1 141350Z 06001KT M07/M09 A3042 RMK A01 T10661088  RH  085%=      5-min Rain = 0
KES1 141351Z 07001KT M07/M09 A3042 RMK A01 T10651088  RH  084%=      5-min Rain = 0
KES1 141352Z 06001KT M07/M09 A3042 RMK A01 T10651088  RH  084%=      5-min Rain = 0
KES1 141353Z 07002KT M06/M09 A3042 RMK A01 T10641089  RH  083%=      5-min Rain = 0
KES1 141354Z 07002KT M06/M09 A3042 RMK A01 T10641090  RH  082%=      5-min Rain = 0
KES1 141355Z 07002KT M06/M09 A3042 RMK A01 T10641090  RH  082%=      5-min Rain = 0
KES1 141356Z 07002KT M06/M09 A3042 RMK A01 T10641091  RH  081%=      5-min Rain = 0
KES1 141357Z 07002KT M06/M09 A3042 RMK A01 T10641091  RH  081%=      5-min Rain = 0
KES1 141358Z 07001KT M06/M09 A3042 RMK A01 T10641091  RH  081%=      5-min Rain = 0
KES1 141359Z 07002KT M06/M09 A3042 RMK A01 T10641092  RH  081%=      5-min Rain = 0
KES1 141400Z 07002KT M06/M09 A3042 RMK A01 T10641092  RH  081%=      5-min Rain = 0
KES1 141401Z 07002KT M06/M09 A3042 RMK A01 T10641092  RH  081%=      5-min Rain = 0
KES1 141402Z 07002KT M06/M09 A3042 RMK A01 T10631090  RH  081%=      5-min Rain = 0
KES1 141403Z 07002KT M06/M09 A3042 RMK A01 T10631089  RH  082%=      5-min Rain = 0
KES1 141404Z 07002KT M06/M09 A3042 RMK A01 T10621090  RH  081%=      5-min Rain = 0
KES1 141405Z 07002KT M06/M09 A3042 RMK A01 T10621091  RH  080%=      5-min Rain = 0
KES1 141406Z 07002KT M06/M09 A3042 RMK A01 T10631091  RH  080%=      5-min Rain = 0
KES1 141407Z 07002KT M06/M09 A3042 RMK A01 T10621090  RH  081%=      5-min Rain = 0
KES1 141408Z 08002KT M06/M09 A3042 RMK A01 T10621090  RH  080%=      5-min Rain = 0
KES1 141409Z 07003KT M06/M09 A3043 RMK A01 T10611089  RH  081%=      5-min Rain = 0
KES1 141410Z 08004KT M06/M09 A3043 RMK A01 T10611091  RH  080%=      5-min Rain = 0
KES1 141411Z 08004KT M06/M09 A3042 RMK A01 T10611092  RH  079%=      5-min Rain = 0
KES1 141412Z 07003KT M06/M09 A3042 RMK A01 T10611092  RH  079%=      5-min Rain = 0
KES1 141413Z 07004KT M06/M09 A3043 RMK A01 T10611091  RH  080%=      5-min Rain = 0
KES1 141414Z 08004KT M06/M09 A3043 RMK A01 T10611090  RH  080%=      5-min Rain = 0
KES1 141415Z 08004KT M06/M09 A3043 RMK A01 T10601089  RH  080%=      5-min Rain = 0
KES1 141416Z 08005KT M06/M09 A3042 RMK A01 T10601089  RH  080%=      5-min Rain = 0
KES1 141417Z 07005KT M06/M09 A3042 RMK A01 T10601091  RH  079%=      5-min Rain = 0
KES1 141418Z 07004KT M06/M09 A3043 RMK A01 T10601092  RH  078%=      5-min Rain = 0
KES1 141419Z 06004KT M06/M09 A3043 RMK A01 T10601092  RH  078%=      5-min Rain = 0
KES1 141420Z 08004KT M06/M09 A3043 RMK A01 T10591089  RH  079%=      5-min Rain = 0
KES1 141421Z 09004KT M06/M09 A3043 RMK A01 T10591089  RH  079%=      5-min Rain = 0
KES1 141422Z 09005KT M06/M09 A3043 RMK A01 T10581090  RH  078%=      5-min Rain = 0
KES1 141423Z 08004KT M06/M09 A3043 RMK A01 T10581093  RH  077%=      5-min Rain = 0
KES1 141424Z 08006KT M06/M09 A3043 RMK A01 T10591094  RH  076%=      5-min Rain = 0
KES1 141425Z 07005KT M06/M10 A3043 RMK A01 T10591095  RH  076%=      5-min Rain = 0
KES1 141426Z 08004KT M06/M09 A3043 RMK A01 T10591094  RH  076%=      5-min Rain = 0
KES1 141427Z 08005KT M06/M09 A3043 RMK A01 T10581091  RH  078%=      5-min Rain = 0
KES1 141428Z 07005KT M06/M09 A3043 RMK A01 T10581089  RH  078%=      5-min Rain = 0
KES1 141429Z 07005KT M06/M09 A3043 RMK A01 T10571090  RH  078%=      5-min Rain = 0
KES1 141430Z 08004KT M06/M09 A3043 RMK A01 T10571090  RH  078%=      5-min Rain = 0
KES1 141431Z 08004KT M06/M09 A3043 RMK A01 T10571090  RH  078%=      5-min Rain = 0
KES1 141432Z 07005KT M06/M09 A3043 RMK A01 T10571090  RH  078%=      5-min Rain = 0
KES1 141433Z 08004KT M06/M09 A3043 RMK A01 T10571089  RH  078%=      5-min Rain = 0
KES1 141434Z 09005KT M06/M09 A3043 RMK A01 T10561089  RH  078%=      5-min Rain = 0
KES1 141435Z 08004KT M06/M09 A3043 RMK A01 T10561089  RH  077%=      5-min Rain = 0
KES1 141436Z 09006KT M06/M09 A3043 RMK A01 T10551089  RH  077%=      5-min Rain = 0
KES1 141437Z 09006KT M06/M09 A3043 RMK A01 T10561092  RH  075%=      5-min Rain = 0
KES1 141438Z 08007KT M06/M09 A3043 RMK A01 T10561094  RH  074%=      5-min Rain = 0
KES1 141439Z 08006KT M06/M10 A3043 RMK A01 T10561096  RH  073%=      5-min Rain = 0
KES1 141440Z 07005KT M06/M10 A3043 RMK A01 T10571097  RH  073%=      5-min Rain = 0
KES1 141441Z 08004KT M06/M10 A3043 RMK A01 T10561096  RH  074%=      5-min Rain = 0
KES1 141442Z 08002KT M06/M09 A3043 RMK A01 T10561094  RH  075%=      5-min Rain = 0
KES1 141443Z 08003KT M06/M09 A3043 RMK A01 T10551091  RH  076%=      5-min Rain = 0
KES1 141444Z 09003KT M05/M09 A3043 RMK A01 T10541090  RH  076%=      5-min Rain = 0
KES1 141445Z 08003KT M05/M09 A3043 RMK A01 T10541091  RH  075%=      5-min Rain = 0
KES1 141446Z 08004KT M05/M09 A3043 RMK A01 T10541090  RH  075%=      5-min Rain = 0
KES1 141447Z 08004KT M05/M09 A3043 RMK A01 T10541092  RH  075%=      5-min Rain = 0
KES1 141448Z 08004KT M05/M09 A3043 RMK A01 T10541094  RH  074%=      5-min Rain = 0
KES1 141449Z 08004KT M05/M10 A3043 RMK A01 T10541095  RH  073%=      5-min Rain = 0
KES1 141450Z 08004KT M05/M09 A3043 RMK A01 T10541094  RH  073%=      5-min Rain = 0
KES1 141451Z 10005KT M05/M09 A3043 RMK A01 T10531093  RH  073%=      5-min Rain = 0
KES1 141452Z 09004KT M05/M09 A3043 RMK A01 T10531094  RH  073%=      5-min Rain = 0
KES1 141453Z 08005KT M05/M09 A3042 RMK A01 T10531094  RH  072%=      5-min Rain = 0
KES1 141454Z 09006KT M05/M10 A3042 RMK A01 T10521095  RH  072%=      5-min Rain = 0
KES1 141455Z 09005KT M05/M10 A3042 RMK A01 T10521096  RH  071%=      5-min Rain = 0
KES1 141456Z 10005KT M05/M10 A3042 RMK A01 T10521097  RH  071%=      5-min Rain = 0
KES1 141457Z 10005KT M05/M10 A3042 RMK A01 T10521098  RH  070%=      5-min Rain = 0
KES1 141458Z 11004KT M05/M10 A3043 RMK A01 T10521099  RH  070%=      5-min Rain = 0
KES1 141459Z 12004KT M05/M10 A3043 RMK A01 T10521098  RH  071%=      5-min Rain = 0
KES1 141500Z 11003KT M05/M10 A3043 RMK A01 T10521097  RH  071%=      5-min Rain = 0
KES1 141501Z 11004KT M05/M09 A3043 RMK A01 T10511094  RH  072%=      5-min Rain = 0
KES1 141502Z 11004KT M05/M09 A3043 RMK A01 T10501092  RH  072%=      5-min Rain = 0
KES1 141503Z 11004KT M05/M10 A3043 RMK A01 T10501096  RH  070%=      5-min Rain = 0
KES1 141504Z 09004KT M05/M10 A3043 RMK A01 T10501095  RH  071%=      5-min Rain = 0
KES1 141505Z 10004KT M05/M09 A3043 RMK A01 T10491094  RH  071%=      5-min Rain = 0
KES1 141506Z 09003KT M05/M10 A3043 RMK A01 T10491095  RH  070%=      5-min Rain = 0
KES1 141507Z 10004KT M05/M10 A3043 RMK A01 T10491096  RH  070%=      5-min Rain = 0
KES1 141508Z 10004KT M05/M10 A3043 RMK A01 T10501098  RH  069%=      5-min Rain = 0
KES1 141509Z 11004KT M05/M10 A3043 RMK A01 T10501096  RH  070%=      5-min Rain = 0
KES1 141510Z 12004KT M05/M10 A3043 RMK A01 T10501095  RH  071%=      5-min Rain = 0
KES1 141511Z 13003KT M05/M09 A3043 RMK A01 T10491094  RH  071%=      5-min Rain = 0
KES1 141512Z 13004KT M05/M09 A3043 RMK A01 T10481094  RH  070%=      5-min Rain = 0
KES1 141513Z 12003KT M05/M10 A3043 RMK A01 T10481095  RH  070%=      5-min Rain = 0
KES1 141514Z 12003KT M05/M09 A3043 RMK A01 T10481094  RH  070%=      5-min Rain = 0
KES1 141515Z 10003KT M05/M09 A3043 RMK A01 T10471093  RH  070%=      5-min Rain = 0
KES1 141516Z 11003KT M05/M10 A3043 RMK A01 T10481095  RH  070%=      5-min Rain = 0
KES1 141517Z 10003KT M05/M10 A3043 RMK A01 T10481095  RH  070%=      5-min Rain = 0
KES1 141518Z 11003KT M05/M10 A3043 RMK A01 T10481096  RH  070%=      5-min Rain = 0
KES1 141519Z 12005KT M05/M09 A3043 RMK A01 T10481094  RH  070%=      5-min Rain = 0
KES1 141520Z 13004KT M05/M09 A3043 RMK A01 T10481093  RH  071%=      5-min Rain = 0
KES1 141521Z 13004KT M05/M09 A3043 RMK A01 T10471093  RH  071%=      5-min Rain = 0
KES1 141522Z 12004KT M05/M09 A3043 RMK A01 T10471092  RH  071%=      5-min Rain = 0
KES1 141523Z 12003KT M05/M09 A3043 RMK A01 T10471092  RH  071%=      5-min Rain = 0
KES1 141524Z 14003KT M05/M09 A3043 RMK A01 T10461090  RH  071%=      5-min Rain = 0
KES1 141525Z 14004KT M05/M09 A3043 RMK A01 T10451090  RH  071%=      5-min Rain = 0
KES1 141526Z 14004KT M05/M09 A3043 RMK A01 T10451090  RH  071%=      5-min Rain = 0
KES1 141527Z 15003KT M04/M09 A3043 RMK A01 T10441090  RH  070%=      5-min Rain = 0
KES1 141528Z 14003KT M04/M09 A3043 RMK A01 T10441090  RH  070%=      5-min Rain = 0
KES1 141529Z 14003KT M04/M09 A3043 RMK A01 T10441088  RH  071%=      5-min Rain = 0
KES1 141530Z 14005KT M04/M09 A3043 RMK A01 T10431088  RH  071%=      5-min Rain = 0
KES1 141531Z 14004KT M04/M09 A3043 RMK A01 T10421089  RH  070%=      5-min Rain = 0
KES1 141532Z 15004KT M04/M09 A3043 RMK A01 T10411090  RH  068%=      5-min Rain = 0
KES1 141533Z 15004KT M04/M09 A3043 RMK A01 T10401091  RH  068%=      5-min Rain = 0
KES1 141534Z 16005KT M04/M09 A3043 RMK A01 T10401092  RH  067%=      5-min Rain = 0
KES1 141535Z 16006KT M04/M09 A3043 RMK A01 T10401092  RH  067%=      5-min Rain = 0
KES1 141536Z 15005KT M04/M10 A3043 RMK A01 T10401095  RH  066%=      5-min Rain = 0
KES1 141537Z 14004KT M04/M09 A3043 RMK A01 T10401093  RH  067%=      5-min Rain = 0
KES1 141538Z 14005KT M04/M09 A3043 RMK A01 T10401091  RH  068%=      5-min Rain = 0
KES1 141539Z 13005KT M04/M09 A3042 RMK A01 T10401092  RH  067%=      5-min Rain = 0
KES1 141540Z 14004KT M04/M09 A3042 RMK A01 T10401093  RH  067%=      5-min Rain = 0
KES1 141541Z 13003KT M04/M09 A3042 RMK A01 T10401092  RH  067%=      5-min Rain = 0
KES1 141542Z 12004KT M04/M09 A3042 RMK A01 T10391090  RH  067%=      5-min Rain = 0
KES1 141543Z 13005KT M04/M09 A3042 RMK A01 T10381090  RH  067%=      5-min Rain = 0
KES1 141544Z 13004KT M04/M09 A3043 RMK A01 T10381092  RH  066%=      5-min Rain = 0
KES1 141545Z 13005KT M04/M09 A3043 RMK A01 T10371089  RH  067%=      5-min Rain = 0
KES1 141546Z 13003KT M04/M09 A3042 RMK A01 T10371090  RH  066%=      5-min Rain = 0
KES1 141547Z 14004KT M04/M09 A3042 RMK A01 T10371090  RH  067%=      5-min Rain = 0
KES1 141548Z 14005KT M04/M09 A3042 RMK A01 T10361088  RH  067%=      5-min Rain = 0
KES1 141549Z 15005KT M04/M09 A3042 RMK A01 T10361090  RH  066%=      5-min Rain = 0
KES1 141550Z 15005KT M04/M09 A3042 RMK A01 T10361092  RH  065%=      5-min Rain = 0
KES1 141551Z 14006KT M04/M09 A3042 RMK A01 T10361092  RH  065%=      5-min Rain = 0
KES1 141552Z 14004KT M04/M09 A3042 RMK A01 T10351090  RH  066%=      5-min Rain = 0
KES1 141553Z 14004KT M03/M09 A3042 RMK A01 T10331088  RH  066%=      5-min Rain = 0
KES1 141554Z 15005KT M03/M09 A3042 RMK A01 T10321088  RH  065%=      5-min Rain = 0
KES1 141555Z 16006KT M03/M09 A3042 RMK A01 T10311090  RH  064%=      5-min Rain = 0
KES1 141556Z 17006KT M03/M09 A3042 RMK A01 T10321093  RH  062%=      5-min Rain = 0
KES1 141557Z 18004KT M03/M09 A3042 RMK A01 T10331094  RH  062%=      5-min Rain = 0
KES1 141558Z 15004KT M03/M09 A3042 RMK A01 T10321092  RH  064%=      5-min Rain = 0
KES1 141559Z 15004KT M03/M09 A3042 RMK A01 T10311090  RH  064%=      5-min Rain = 0
KES1 141600Z 15004KT M03/M09 A3042 RMK A01 T10301090  RH  063%=      5-min Rain = 0
KES1 141601Z 16006KT M03/M09 A3042 RMK A01 T10291088  RH  064%=      5-min Rain = 0
KES1 141602Z 17005KT M03/M09 A3042 RMK A01 T10291091  RH  062%=      5-min Rain = 0
KES1 141603Z 16007KT M03/M09 A3042 RMK A01 T10291092  RH  062%=      5-min Rain = 0
KES1 141604Z 14007KT M03/M09 A3042 RMK A01 T10291094  RH  061%=      5-min Rain = 0
KES1 141605Z 15006KT M03/M10 A3042 RMK A01 T10301095  RH  061%=      5-min Rain = 0
KES1 141606Z 15006KT M03/M10 A3042 RMK A01 T10301095  RH  061%=      5-min Rain = 0
KES1 141607Z 16004KT M03/M09 A3042 RMK A01 T10301094  RH  061%=      5-min Rain = 0
KES1 141608Z 17005KT M03/M09 A3042 RMK A01 T10291092  RH  062%=      5-min Rain = 0
KES1 141609Z 16007KT M03/M09 A3042 RMK A01 T10281092  RH  061%=      5-min Rain = 0
KES1 141610Z 17007KT M03/M09 A3042 RMK A01 T10281093  RH  061%=      5-min Rain = 0
KES1 141611Z 16006KT M03/M09 A3042 RMK A01 T10281094  RH  060%=      5-min Rain = 0
KES1 141612Z 15007KT M03/M09 A3042 RMK A01 T10281093  RH  061%=      5-min Rain = 0
KES1 141613Z 15006KT M03/M09 A3042 RMK A01 T10281094  RH  060%=      5-min Rain = 0
KES1 141614Z 15009KT M03/M09 A3042 RMK A01 T10271092  RH  061%=      5-min Rain = 0
KES1 141615Z 16009KT M03/M09 A3042 RMK A01 T10271094  RH  060%=      5-min Rain = 0
KES1 141616Z 16007KT M03/M10 A3042 RMK A01 T10271095  RH  060%=      5-min Rain = 0
KES1 141617Z 16007KT M03/M10 A3042 RMK A01 T10281096  RH  060%=      5-min Rain = 0
KES1 141618Z 15005KT M03/M10 A3042 RMK A01 T10281095  RH  060%=      5-min Rain = 0
KES1 141619Z 16004G9KT M03/M09 A3042 RMK A01 T10281093  RH  061%=      5-min Rain = 0
KES1 141620Z 16008KT M03/M09 A3042 RMK A01 T10271091  RH  061%=      5-min Rain = 0
KES1 141621Z 17007KT M03/M09 A3042 RMK A01 T10271094  RH  060%=      5-min Rain = 0
KES1 141622Z 17006KT M03/M09 A3042 RMK A01 T10271093  RH  061%=      5-min Rain = 0
KES1 141623Z 18008KT M03/M09 A3042 RMK A01 T10261092  RH  061%=      5-min Rain = 0
KES1 141624Z 19008KT M03/M09 A3042 RMK A01 T10271093  RH  060%=      5-min Rain = 0
KES1 141625Z 18005KT M03/M09 A3042 RMK A01 T10271093  RH  061%=      5-min Rain = 0
KES1 141626Z 17006KT M03/M09 A3042 RMK A01 T10281092  RH  061%=      5-min Rain = 0
KES1 141627Z 16007KT M03/M09 A3042 RMK A01 T10271091  RH  061%=      5-min Rain = 0
KES1 141628Z 15006KT M03/M09 A3042 RMK A01 T10271093  RH  060%=      5-min Rain = 0
KES1 141629Z 15007KT M03/M09 A3042 RMK A01 T10271093  RH  061%=      5-min Rain = 0
KES1 141630Z 17007KT M03/M09 A3042 RMK A01 T10261090  RH  061%=      5-min Rain = 0
KES1 141631Z 16006KT M03/M09 A3042 RMK A01 T10251093  RH  060%=      5-min Rain = 0
KES1 141632Z 19006KT M03/M09 A3042 RMK A01 T10271094  RH  060%=      5-min Rain = 0
KES1 141633Z 19006KT M03/M09 A3042 RMK A01 T10271093  RH  060%=      5-min Rain = 0
KES1 141634Z 18007KT M03/M09 A3042 RMK A01 T10261090  RH  061%=      5-min Rain = 0
KES1 141635Z 18006KT M03/M09 A3042 RMK A01 T10251090  RH  061%=      5-min Rain = 0
KES1 141636Z 18008KT M02/M09 A3042 RMK A01 T10241089  RH  061%=      5-min Rain = 0
KES1 141637Z 18009KT M03/M09 A3042 RMK A01 T10251091  RH  060%=      5-min Rain = 0
KES1 141638Z 18008KT M03/M09 A3042 RMK A01 T10261092  RH  060%=      5-min Rain = 0
KES1 141639Z 18010KT M03/M09 A3042 RMK A01 T10261092  RH  061%=      5-min Rain = 0
KES1 141640Z 18008KT M03/M09 A3042 RMK A01 T10261091  RH  061%=      5-min Rain = 0
KES1 141641Z 18006KT M03/M09 A3042 RMK A01 T10261092  RH  060%=      5-min Rain = 0
KES1 141642Z 18006KT M03/M09 A3042 RMK A01 T10261092  RH  061%=      5-min Rain = 0
KES1 141643Z 18007KT M03/M09 A3041 RMK A01 T10261091  RH  061%=      5-min Rain = 0
KES1 141644Z 16007KT M03/M09 A3041 RMK A01 T10261091  RH  061%=      5-min Rain = 0
KES1 141645Z 16006KT M03/M09 A3042 RMK A01 T10261091  RH  061%=      5-min Rain = 0
KES1 141646Z 15008KT M03/M09 A3041 RMK A01 T10251090  RH  061%=      5-min Rain = 0
KES1 141647Z 16007KT M02/M09 A3041 RMK A01 T10241089  RH  061%=      5-min Rain = 0
KES1 141648Z 17007KT M02/M09 A3041 RMK A01 T10231088  RH  061%=      5-min Rain = 0
KES1 141649Z 15004KT M02/M09 A3041 RMK A01 T10231090  RH  060%=      5-min Rain = 0
KES1 141650Z 16004KT M02/M09 A3041 RMK A01 T10231090  RH  060%=      5-min Rain = 0
KES1 141651Z 16006KT M02/M09 A3041 RMK A01 T10221087  RH  061%=      5-min Rain = 0
KES1 141652Z 15005KT M02/M09 A3041 RMK A01 T10211088  RH  060%=      5-min Rain = 0
KES1 141653Z 17004KT M02/M08 A3041 RMK A01 T10201084  RH  061%=      5-min Rain = 0
KES1 141654Z 16006KT M02/M08 A3041 RMK A01 T10181084  RH  061%=      5-min Rain = 0
KES1 141655Z 16008KT M02/M09 A3041 RMK A01 T10181086  RH  060%=      5-min Rain = 0
KES1 141656Z 17007KT M02/M09 A3041 RMK A01 T10201090  RH  059%=      5-min Rain = 0
KES1 141657Z 18006KT M02/M09 A3041 RMK A01 T10221089  RH  060%=      5-min Rain = 0
KES1 141658Z 18006KT M02/M09 A3041 RMK A01 T10221088  RH  060%=      5-min Rain = 0
KES1 141659Z 18006KT M02/M09 A3041 RMK A01 T10221088  RH  061%=      5-min Rain = 0
KES1 141700Z 17006KT M02/M09 A3041 RMK A01 T10231088  RH  061%=      5-min Rain = 0
KES1 141701Z 16006KT M02/M09 A3041 RMK A01 T10221087  RH  061%=      5-min Rain = 0
KES1 141702Z 16005KT M02/M09 A3041 RMK A01 T10221087  RH  061%=      5-min Rain = 0
KES1 141703Z 16005KT M02/M09 A3041 RMK A01 T10201085  RH  061%=      5-min Rain = 0
KES1 141704Z 15006KT M02/M09 A3041 RMK A01 T10191086  RH  060%=      5-min Rain = 0
KES1 141705Z 16004KT M02/M09 A3041 RMK A01 T10191086  RH  060%=      5-min Rain = 0
KES1 141706Z 17004KT M02/M09 A3041 RMK A01 T10191085  RH  061%=      5-min Rain = 0
KES1 141707Z 17004KT M02/M08 A3041 RMK A01 T10171083  RH  061%=      5-min Rain = 0
KES1 141708Z 19005KT M02/M08 A3041 RMK A01 T10171081  RH  061%=      5-min Rain = 0
KES1 141709Z 18005KT M02/M08 A3041 RMK A01 T10171082  RH  061%=      5-min Rain = 0
KES1 141710Z 15005KT M02/M08 A3041 RMK A01 T10171083  RH  061%=      5-min Rain = 0
KES1 141711Z 15005KT M02/M08 A3041 RMK A01 T10181084  RH  060%=      5-min Rain = 0
KES1 141712Z 17005KT M02/M08 A3041 RMK A01 T10171083  RH  061%=      5-min Rain = 0
KES1 141713Z 18006KT M02/M08 A3041 RMK A01 T10171081  RH  062%=      5-min Rain = 0
KES1 141714Z 18006KT M02/M08 A3041 RMK A01 T10171082  RH  061%=      5-min Rain = 0
KES1 141715Z 19006KT M02/M09 A3041 RMK A01 T10191085  RH  061%=      5-min Rain = 0
KES1 141716Z 17006KT M02/M08 A3041 RMK A01 T10191084  RH  061%=      5-min Rain = 0
KES1 141717Z 17006KT M02/M08 A3041 RMK A01 T10191083  RH  062%=      5-min Rain = 0
KES1 141718Z 16006KT M02/M08 A3041 RMK A01 T10191084  RH  061%=      5-min Rain = 0
KES1 141719Z 17004KT M02/M09 A3041 RMK A01 T10191086  RH  060%=      5-min Rain = 0
KES1 141720Z 18004KT M02/M08 A304 RMK A01 T10191083  RH  061%=      5-min Rain = 0
KES1 141721Z 18008KT M02/M08 A304 RMK A01 T10171079  RH  063%=      5-min Rain = 0
KES1 141722Z 17009KT M02/M08 A304 RMK A01 T10151075  RH  064%=      5-min Rain = 0
KES1 141723Z 17008KT M02/M07 A304 RMK A01 T10151074  RH  064%=      5-min Rain = 0
KES1 141724Z 18008KT M02/M07 A304 RMK A01 T10161074  RH  065%=      5-min Rain = 0
KES1 141725Z 18007KT M02/M07 A304 RMK A01 T10171074  RH  065%=      5-min Rain = 0
KES1 141726Z 15009KT M02/M07 A304 RMK A01 T10161074  RH  065%=      5-min Rain = 0
KES1 141727Z 16008KT M02/M08 A304 RMK A01 T10171076  RH  064%=      5-min Rain = 0
KES1 141728Z 16007KT M02/M08 A304 RMK A01 T10171075  RH  065%=      5-min Rain = 0
KES1 141729Z 17009KT M02/M07 A3039 RMK A01 T10161072  RH  065%=      5-min Rain = 0
KES1 141730Z 17009KT M02/M07 A3039 RMK A01 T10151074  RH  064%=      5-min Rain = 0
KES1 141731Z 16007KT M02/M08 A3039 RMK A01 T10171078  RH  063%=      5-min Rain = 0
KES1 141732Z 16006KT M02/M08 A3039 RMK A01 T10171076  RH  064%=      5-min Rain = 0
KES1 141733Z 17006KT M02/M08 A3039 RMK A01 T10171075  RH  064%=      5-min Rain = 0
KES1 141734Z 17003KT M02/M07 A3039 RMK A01 T10161073  RH  065%=      5-min Rain = 0
KES1 141735Z 16008KT M01/M07 A3039 RMK A01 T10141073  RH  064%=      5-min Rain = 0
KES1 141736Z 17006KT M01/M07 A3039 RMK A01 T10141074  RH  063%=      5-min Rain = 0
KES1 141737Z 17004KT M01/M07 A3039 RMK A01 T10141074  RH  064%=      5-min Rain = 0
KES1 141738Z 14007KT M01/M07 A3039 RMK A01 T10131072  RH  064%=      5-min Rain = 0
KES1 141739Z 17006KT M01/M07 A3039 RMK A01 T10111069  RH  065%=      5-min Rain = 0
KES1 141740Z 17007KT M01/M07 A3039 RMK A01 T10091067  RH  065%=      5-min Rain = 0
KES1 141741Z 16009KT M01/M07 A3039 RMK A01 T10091067  RH  064%=      5-min Rain = 0
KES1 141742Z 16008KT M01/M07 A3039 RMK A01 T10101069  RH  064%=      5-min Rain = 0
KES1 141743Z 16007KT M01/M07 A3039 RMK A01 T10111070  RH  064%=      5-min Rain = 0
KES1 141744Z 16008KT M01/M07 A3039 RMK A01 T10091068  RH  064%=      5-min Rain = 0
KES1 141745Z 17008KT M01/M07 A3039 RMK A01 T10081069  RH  063%=      5-min Rain = 0
KES1 141746Z 16010KT M01/M07 A3038 RMK A01 T10091070  RH  063%=      5-min Rain = 0
KES1 141747Z 17009KT M01/M07 A3038 RMK A01 T10111072  RH  063%=      5-min Rain = 0
KES1 141748Z 18007KT M01/M07 A3038 RMK A01 T10121072  RH  064%=      5-min Rain = 0
KES1 141749Z 18007KT M01/M07 A3038 RMK A01 T10121072  RH  063%=      5-min Rain = 0
KES1 141750Z 18007KT M01/M07 A3038 RMK A01 T10121072  RH  064%=      5-min Rain = 0
KES1 141751Z 17008KT M01/M07 A3038 RMK A01 T10111071  RH  064%=      5-min Rain = 0
KES1 141752Z 16008KT M01/M07 A3038 RMK A01 T10101070  RH  064%=      5-min Rain = 0
KES1 141753Z 17008KT M01/M07 A3038 RMK A01 T10101070  RH  064%=      5-min Rain = 0
KES1 141754Z 19008KT M01/M07 A3038 RMK A01 T10101070  RH  064%=      5-min Rain = 0
KES1 141755Z 19007KT M01/M07 A3038 RMK A01 T10111072  RH  063%=      5-min Rain = 0
KES1 141756Z 18006KT M01/M07 A3038 RMK A01 T10121073  RH  064%=      5-min Rain = 0
KES1 141757Z 16006KT M01/M07 A3038 RMK A01 T10131072  RH  064%=      5-min Rain = 0
KES1 141758Z 16007KT M01/M07 A3038 RMK A01 T10101069  RH  064%=      5-min Rain = 0
KES1 141759Z 15004KT M01/M07 A3038 RMK A01 T10091070  RH  064%=      5-min Rain = 0
KES1 141800Z 15007KT M01/M07 A3038 RMK A01 T10071068  RH  063%=      5-min Rain = 0
KES1 141801Z 16006KT M01/M07 A3038 RMK A01 T10071070  RH  062%=      5-min Rain = 0
KES1 141802Z 15006KT M01/M07 A3038 RMK A01 T10061070  RH  062%=      5-min Rain = 0
KES1 141803Z 16005KT M01/M07 A3038 RMK A01 T10061071  RH  061%=      5-min Rain = 0
KES1 141804Z 17006KT M01/M07 A3038 RMK A01 T10051068  RH  062%=      5-min Rain = 0
KES1 141805Z 16006KT M00/M07 A3038 RMK A01 T10021066  RH  062%=      5-min Rain = 0
KES1 141806Z 16005KT M00/M07 A3038 RMK A01 T10021069  RH  061%=      5-min Rain = 0
KES1 141807Z 16004KT M00/M07 A3038 RMK A01 T10021068  RH  061%=      5-min Rain = 0
KES1 141808Z 19005KT M00/M07 A3038 RMK A01 T10011067  RH  061%=      5-min Rain = 0
KES1 141809Z 19007KT M00/M07 A3037 RMK A01 T10011067  RH  061%=      5-min Rain = 0
KES1 141810Z 19008KT M00/M07 A3037 RMK A01 T10041068  RH  062%=      5-min Rain = 0
KES1 141811Z 19008KT M01/M07 A3037 RMK A01 T10051067  RH  063%=      5-min Rain = 0
KES1 141812Z 18008KT M01/M06 A3037 RMK A01 T10051064  RH  065%=      5-min Rain = 0
KES1 141813Z 20007KT M00/M06 A3037 RMK A01 T10021062  RH  064%=      5-min Rain = 0
KES1 141814Z 20009KT M00/M06 A3037 RMK A01 T10011062  RH  063%=      5-min Rain = 0
KES1 141815Z 17007KT M00/M06 A3037 RMK A01 T10011062  RH  063%=      5-min Rain = 0
KES1 141816Z 16007KT 00/06 A3037 RMK A01 T00000-62  RH  063%=      5-min Rain = 0
KES1 141817Z 16007KT 00/M06 A3037 RMK A01 T00021061  RH  063%=      5-min Rain = 0
KES1 141818Z 15006KT 00/M06 A3037 RMK A01 T00021062  RH  062%=      5-min Rain = 0
KES1 141819Z 17006KT 00/M06 A3037 RMK A01 T00021063  RH  062%=      5-min Rain = 0
KES1 141820Z 16008KT 00/M06 A3036 RMK A01 T00011061  RH  063%=      5-min Rain = 0
KES1 141821Z 15010KT 00/M06 A3036 RMK A01 T00031059  RH  063%=      5-min Rain = 0
KES1 141822Z 16008KT 00/M06 A3036 RMK A01 T00021062  RH  062%=      5-min Rain = 0
KES1 141823Z 16006KT 00/M06 A3036 RMK A01 T00011060  RH  063%=      5-min Rain = 0
KES1 141824Z 16005KT 01/M06 A3036 RMK A01 T00061056  RH  063%=      5-min Rain = 0
KES1 141825Z 15004KT 01/M06 A3036 RMK A01 T00071057  RH  062%=      5-min Rain = 0
KES1 141826Z 19007KT 01/M06 A3036 RMK A01 T00091057  RH  062%=      5-min Rain = 0
KES1 141827Z 19008KT 01/M06 A3036 RMK A01 T00091057  RH  061%=      5-min Rain = 0
KES1 141828Z 21004KT 01/M06 A3036 RMK A01 T00061061  RH  061%=      5-min Rain = 0
KES1 141829Z 18005KT 01/M06 A3035 RMK A01 T00051059  RH  062%=      5-min Rain = 0
KES1 141830Z 17007KT 01/M05 A3035 RMK A01 T00091053  RH  063%=      5-min Rain = 0
KES1 141831Z 17008KT 01/M05 A3035 RMK A01 T00121053  RH  062%=      5-min Rain = 0
KES1 141832Z 18008KT 01/M05 A3035 RMK A01 T00141054  RH  061%=      5-min Rain = 0
KES1 141833Z 16008G13KT 01/M06 A3035 RMK A01 T00141055  RH  060%=      5-min Rain = 0
KES1 141834Z 16010KT 01/M06 A3035 RMK A01 T00131056  RH  060%=      5-min Rain = 0
KES1 141835Z 16009KT 01/M06 A3035 RMK A01 T00121058  RH  059%=      5-min Rain = 0
KES1 141836Z 17008KT 01/M06 A3035 RMK A01 T00121058  RH  060%=      5-min Rain = 0
KES1 141837Z 17004KT 01/M06 A3035 RMK A01 T00121056  RH  060%=      5-min Rain = 0
KES1 141838Z 20004KT 01/M06 A3035 RMK A01 T00121057  RH  060%=      5-min Rain = 0
KES1 141839Z 20007KT 01/M06 A3035 RMK A01 T00121057  RH  060%=      5-min Rain = 0
KES1 141840Z 18009KT 01/M06 A3034 RMK A01 T00121056  RH  060%=      5-min Rain = 0
KES1 141841Z 19008KT 02/M05 A3034 RMK A01 T00151052  RH  061%=      5-min Rain = 0
KES1 141842Z 20010KT 02/M05 A3034 RMK A01 T00191051  RH  059%=      5-min Rain = 0
KES1 141843Z 20010KT 02/M06 A3034 RMK A01 T00171057  RH  058%=      5-min Rain = 0
KES1 141844Z 20007KT 01/M06 A3034 RMK A01 T00141058  RH  059%=      5-min Rain = 0
KES1 141845Z 18007KT 01/M06 A3034 RMK A01 T00131057  RH  060%=      5-min Rain = 0
KES1 141846Z 16008KT 01/M06 A3034 RMK A01 T00141055  RH  060%=      5-min Rain = 0
KES1 141847Z 16009KT 02/M06 A3034 RMK A01 T00171055  RH  059%=      5-min Rain = 0
KES1 141848Z 18007KT 02/M06 A3034 RMK A01 T00171058  RH  058%=      5-min Rain = 0
KES1 141849Z 20006KT 02/M06 A3034 RMK A01 T00161058  RH  058%=      5-min Rain = 0
KES1 141850Z 22004KT 02/M06 A3034 RMK A01 T00151055  RH  059%=      5-min Rain = 0
KES1 141851Z 19006KT 02/M05 A3034 RMK A01 T00171054  RH  059%=      5-min Rain = 0
KES1 141852Z 15011KT 02/M05 A3034 RMK A01 T00191053  RH  059%=      5-min Rain = 0
KES1 141853Z 15008KT 02/M06 A3033 RMK A01 T00181057  RH  058%=      5-min Rain = 0
KES1 141854Z 14007KT 02/M06 A3033 RMK A01 T00171057  RH  058%=      5-min Rain = 0
KES1 141855Z 15005KT 02/M05 A3033 RMK A01 T00181053  RH  059%=      5-min Rain = 0
KES1 141856Z 14008KT 02/M05 A3033 RMK A01 T00231049  RH  059%=      5-min Rain = 0
KES1 141857Z 16012KT 03/M05 A3033 RMK A01 T00251050  RH  058%=      5-min Rain = 0
KES1 141858Z 16008KT 02/M05 A3033 RMK A01 T00241053  RH  057%=      5-min Rain = 0
KES1 141859Z 18009KT 02/M06 A3033 RMK A01 T00191056  RH  058%=      5-min Rain = 0
KES1 141900Z 15006KT 02/M06 A3033 RMK A01 T00161055  RH  059%=      5-min Rain = 0
KES1 141901Z 15007KT 02/M05 A3033 RMK A01 T00171050  RH  061%=      5-min Rain = 0
KES1 141902Z 18008KT 02/M04 A3033 RMK A01 T00241040  RH  062%=      5-min Rain = 0
KES1 141903Z 19010KT 03/M04 A3033 RMK A01 T00281044  RH  059%=      5-min Rain = 0
KES1 141904Z 19007KT 02/M05 A3033 RMK A01 T00241052  RH  057%=      5-min Rain = 0
KES1 141905Z 19010KT 02/M05 A3033 RMK A01 T00201052  RH  059%=      5-min Rain = 0
KES1 141906Z 19010KT 02/M05 A3032 RMK A01 T00201050  RH  060%=      5-min Rain = 0
KES1 141907Z 18008KT 02/M05 A3032 RMK A01 T00211048  RH  060%=      5-min Rain = 0
KES1 141908Z 17010KT 02/M04 A3032 RMK A01 T00241044  RH  060%=      5-min Rain = 0
KES1 141909Z 15009KT 03/M05 A3032 RMK A01 T00251046  RH  059%=      5-min Rain = 0
KES1 141910Z 16010KT 03/M05 A3032 RMK A01 T00261046  RH  059%=      5-min Rain = 0
KES1 141911Z 17011KT 03/M05 A3032 RMK A01 T00251049  RH  058%=      5-min Rain = 0
KES1 141912Z 17008KT 03/M05 A3032 RMK A01 T00251048  RH  059%=      5-min Rain = 0
KES1 141913Z 17006KT 02/M05 A3032 RMK A01 T00241047  RH  059%=      5-min Rain = 0
KES1 141914Z 17011KT 03/M04 A3032 RMK A01 T00281043  RH  059%=      5-min Rain = 0
KES1 141915Z 17009KT 03/M05 A3032 RMK A01 T00291046  RH  058%=      5-min Rain = 0
KES1 141916Z 18009KT 03/M05 A3031 RMK A01 T00291047  RH  058%=      5-min Rain = 0
KES1 141917Z 19013KT 03/M05 A3031 RMK A01 T00291045  RH  058%=      5-min Rain = 0
KES1 141918Z 19011KT 03/M05 A3031 RMK A01 T00291046  RH  058%=      5-min Rain = 0
KES1 141919Z 20011KT 03/M05 A3031 RMK A01 T00281046  RH  058%=      5-min Rain = 0
KES1 141920Z 20006KT 03/M05 A3031 RMK A01 T00271047  RH  058%=      5-min Rain = 0
KES1 141921Z 19006KT 03/M05 A3031 RMK A01 T00271046  RH  059%=      5-min Rain = 0
KES1 141922Z 17010KT 03/M05 A3031 RMK A01 T00281045  RH  059%=      5-min Rain = 0
KES1 141923Z 17011KT 03/M04 A3031 RMK A01 T00301044  RH  058%=      5-min Rain = 0
KES1 141924Z 17008KT 03/M04 A3031 RMK A01 T00321043  RH  058%=      5-min Rain = 0
KES1 141925Z 19007KT 03/M04 A3031 RMK A01 T00341040  RH  058%=      5-min Rain = 0
KES1 141926Z 20009KT 03/M04 A303 RMK A01 T00341043  RH  057%=      5-min Rain = 0
KES1 141927Z 17008G13KT 03/M05 A303 RMK A01 T00311045  RH  057%=      5-min Rain = 0
KES1 141928Z 18011KT 03/M04 A303 RMK A01 T00331042  RH  058%=      5-min Rain = 0
KES1 141929Z 17010KT 03/M04 A303 RMK A01 T00341042  RH  057%=      5-min Rain = 0
KES1 141930Z 17010G16KT 03/M04 A303 RMK A01 T00341042  RH  057%=      5-min Rain = 0
KES1 141931Z 17011KT 03/M04 A303 RMK A01 T00341042  RH  057%=      5-min Rain = 0
KES1 141932Z 17010KT 03/M04 A303 RMK A01 T00331044  RH  057%=      5-min Rain = 0
KES1 141933Z 18008KT 03/M04 A303 RMK A01 T00311044  RH  058%=      5-min Rain = 0
KES1 141934Z 19008KT 03/M04 A303 RMK A01 T00331040  RH  059%=      5-min Rain = 0
KES1 141935Z 20010KT 04/M04 A303 RMK A01 T00351041  RH  058%=      5-min Rain = 0
KES1 141936Z 17011KT 04/M04 A303 RMK A01 T00351041  RH  058%=      5-min Rain = 0
KES1 141937Z 16008KT 04/M04 A303 RMK A01 T00361042  RH  057%=      5-min Rain = 0
KES1 141938Z 18006KT 04/M04 A3029 RMK A01 T00351042  RH  057%=      5-min Rain = 0
KES1 141939Z 16008KT 03/M04 A3029 RMK A01 T00331044  RH  057%=      5-min Rain = 0
KES1 141940Z 16012KT 04/M04 A3029 RMK A01 T00351040  RH  058%=      5-min Rain = 0
KES1 141941Z 18009KT 04/M04 A3029 RMK A01 T00371039  RH  057%=      5-min Rain = 0
KES1 141942Z 18009KT 04/M04 A3029 RMK A01 T00371041  RH  057%=      5-min Rain = 0
KES1 141943Z 16009KT 04/M04 A3029 RMK A01 T00361040  RH  058%=      5-min Rain = 0
KES1 141944Z 16013KT 04/M04 A3029 RMK A01 T00381039  RH  057%=      5-min Rain = 0
KES1 141945Z 18012KT 04/M04 A3029 RMK A01 T00391040  RH  056%=      5-min Rain = 0
KES1 141946Z 16008KT 04/M04 A3029 RMK A01 T00381040  RH  057%=      5-min Rain = 0
KES1 141947Z 18007KT 04/M04 A3029 RMK A01 T00381040  RH  057%=      5-min Rain = 0
KES1 141948Z 18007KT 04/M04 A3029 RMK A01 T00401038  RH  057%=      5-min Rain = 0
KES1 141949Z 19007KT 04/M04 A3029 RMK A01 T00401041  RH  056%=      5-min Rain = 0
KES1 141950Z 17007KT 04/M04 A3029 RMK A01 T00401039  RH  057%=      5-min Rain = 0
KES1 141951Z 16008G13KT 04/M04 A3029 RMK A01 T00401041  RH  056%=      5-min Rain = 0
KES1 141952Z 15012KT 04/M04 A3029 RMK A01 T00381042  RH  056%=      5-min Rain = 0
KES1 141953Z 15008KT 04/M04 A3029 RMK A01 T00361043  RH  056%=      5-min Rain = 0
KES1 141954Z 16007G12KT 04/M04 A3029 RMK A01 T00351041  RH  057%=      5-min Rain = 0
KES1 141955Z 16011KT 04/M04 A3029 RMK A01 T00361041  RH  057%=      5-min Rain = 0
KES1 141956Z 17011G16KT 04/M04 A3029 RMK A01 T00381038  RH  057%=      5-min Rain = 0
KES1 141957Z 17012KT 04/M04 A3029 RMK A01 T00411036  RH  057%=      5-min Rain = 0
KES1 141958Z 17011KT 04/M04 A3028 RMK A01 T00421037  RH  056%=      5-min Rain = 0
KES1 141959Z 18012KT 04/M04 A3028 RMK A01 T00411039  RH  056%=      5-min Rain = 0
KES1 142000Z 20009KT 04/M04 A3028 RMK A01 T00411038  RH  056%=      5-min Rain = 0
KES1 142001Z 20011KT 04/M04 A3028 RMK A01 T00421036  RH  057%=      5-min Rain = 0
KES1 142002Z 20010KT 04/M04 A3028 RMK A01 T00431038  RH  056%=      5-min Rain = 0
KES1 142003Z 19008KT 04/M04 A3028 RMK A01 T00421037  RH  056%=      5-min Rain = 0
KES1 142004Z 15005KT 05/M03 A3028 RMK A01 T00471032  RH  057%=      5-min Rain = 0
KES1 142005Z 15009KT 05/M04 A3028 RMK A01 T00491035  RH  054%=      5-min Rain = 0
KES1 142006Z 17008KT 05/M04 A3028 RMK A01 T00481037  RH  054%=      5-min Rain = 0
KES1 142007Z 18008KT 05/M04 A3028 RMK A01 T00451038  RH  055%=      5-min Rain = 0
KES1 142008Z 19009KT 04/M04 A3028 RMK A01 T00441037  RH  056%=      5-min Rain = 0
KES1 142009Z 17009KT 05/M03 A3028 RMK A01 T00461033  RH  057%=      5-min Rain = 0
KES1 142010Z 16008KT 05/M04 A3028 RMK A01 T00481035  RH  055%=      5-min Rain = 0
KES1 142011Z 17008KT 05/M03 A3027 RMK A01 T00481034  RH  055%=      5-min Rain = 0
KES1 142012Z 17010KT 05/M03 A3027 RMK A01 T00501033  RH  055%=      5-min Rain = 0
KES1 142013Z 19008KT 05/M04 A3027 RMK A01 T00501035  RH  054%=      5-min Rain = 0
KES1 142014Z 19009KT 05/M04 A3027 RMK A01 T00481035  RH  055%=      5-min Rain = 0
KES1 142015Z 15008KT 05/M03 A3027 RMK A01 T00491033  RH  055%=      5-min Rain = 0
KES1 142016Z 14010KT 05/M03 A3027 RMK A01 T00501034  RH  054%=      5-min Rain = 0
KES1 142017Z 14008KT 05/M04 A3027 RMK A01 T00501035  RH  054%=      5-min Rain = 0
KES1 142018Z 16008KT 05/M03 A3027 RMK A01 T00521030  RH  055%=      5-min Rain = 0
KES1 142019Z 15008KT 06/M03 A3027 RMK A01 T00551031  RH  054%=      5-min Rain = 0
KES1 142020Z 19008KT 05/M03 A3027 RMK A01 T00541033  RH  054%=      5-min Rain = 0
KES1 142021Z 20007KT 05/M03 A3027 RMK A01 T00521033  RH  054%=      5-min Rain = 0
KES1 142022Z 20010KT 05/M03 A3027 RMK A01 T00521032  RH  055%=      5-min Rain = 0
KES1 142023Z 18009KT 05/M03 A3027 RMK A01 T00541030  RH  055%=      5-min Rain = 0
KES1 142024Z 19012KT 06/M03 A3026 RMK A01 T00571028  RH  054%=      5-min Rain = 0
KES1 142025Z 19009KT 05/M04 A3026 RMK A01 T00531035  RH  053%=      5-min Rain = 0
KES1 142026Z 17007KT 05/M04 A3026 RMK A01 T00481036  RH  054%=      5-min Rain = 0
KES1 142027Z 15010KT 05/M03 A3026 RMK A01 T00481033  RH  056%=      5-min Rain = 0
KES1 142028Z 14011KT 05/M03 A3026 RMK A01 T00521030  RH  055%=      5-min Rain = 0
KES1 142029Z 16013KT 05/M03 A3026 RMK A01 T00531032  RH  055%=      5-min Rain = 0
KES1 142030Z 16013KT 05/M03 A3026 RMK A01 T00531031  RH  055%=      5-min Rain = 0
KES1 142031Z 17012KT 05/M03 A3026 RMK A01 T00541030  RH  055%=      5-min Rain = 0
KES1 142032Z 16009KT 05/M03 A3026 RMK A01 T00531032  RH  054%=      5-min Rain = 0
KES1 142033Z 17008KT 05/M03 A3026 RMK A01 T00531029  RH  055%=      5-min Rain = 0
KES1 142034Z 17008KT 05/M03 A3026 RMK A01 T00541030  RH  055%=      5-min Rain = 0
KES1 142035Z 17009G14KT 06/M03 A3026 RMK A01 T00551030  RH  055%=      5-min Rain = 0
KES1 142036Z 16015KT 06/M03 A3026 RMK A01 T00561029  RH  054%=      5-min Rain = 0
KES1 142037Z 18009G14KT 06/M03 A3026 RMK A01 T00561029  RH  054%=      5-min Rain = 0
KES1 142038Z 19009KT 06/M03 A3026 RMK A01 T00581026  RH  054%=      5-min Rain = 0
KES1 142039Z 17010KT 06/M03 A3026 RMK A01 T00581029  RH  054%=      5-min Rain = 0
KES1 142040Z 17007G13KT 06/M03 A3026 RMK A01 T00571029  RH  054%=      5-min Rain = 0
KES1 142041Z 17010KT 06/M03 A3026 RMK A01 T00591028  RH  054%=      5-min Rain = 0
KES1 142042Z 16011KT 06/M03 A3025 RMK A01 T00591028  RH  054%=      5-min Rain = 0
KES1 142043Z 15012KT 06/M03 A3025 RMK A01 T00591029  RH  053%=      5-min Rain = 0
KES1 142044Z 17010KT 06/M03 A3025 RMK A01 T00581029  RH  054%=      5-min Rain = 0
KES1 142045Z 17009KT 06/M03 A3025 RMK A01 T00581028  RH  054%=      5-min Rain = 0
KES1 142046Z 16008KT 06/M03 A3025 RMK A01 T00581028  RH  054%=      5-min Rain = 0
KES1 142047Z 18008KT 06/M03 A3025 RMK A01 T00591027  RH  054%=      5-min Rain = 0
KES1 142048Z 17009KT 06/M03 A3025 RMK A01 T00611025  RH  054%=      5-min Rain = 0
KES1 142049Z 16010KT 06/M03 A3025 RMK A01 T00621026  RH  053%=      5-min Rain = 0
KES1 142050Z 18011G18KT 07/M02 A3025 RMK A01 T00661022  RH  054%=      5-min Rain = 0
KES1 142051Z 18011G17KT 07/M02 A3025 RMK A01 T00681022  RH  053%=      5-min Rain = 0
KES1 142052Z 18014G20KT 07/M03 A3025 RMK A01 T00671025  RH  052%=      5-min Rain = 0
KES1 142053Z 17013KT 06/M03 A3024 RMK A01 T00631026  RH  053%=      5-min Rain = 0
KES1 142054Z 18012KT 06/M03 A3025 RMK A01 T00631025  RH  053%=      5-min Rain = 0
KES1 142055Z 20012KT 06/M03 A3025 RMK A01 T00631025  RH  053%=      5-min Rain = 0
KES1 142056Z 20010KT 06/M03 A3024 RMK A01 T00621026  RH  053%=      5-min Rain = 0
KES1 142057Z 21008KT 06/M03 A3024 RMK A01 T00611027  RH  053%=      5-min Rain = 0
KES1 142058Z 20009KT 06/M02 A3024 RMK A01 T00621024  RH  054%=      5-min Rain = 0
KES1 142059Z 19011G16KT 06/M02 A3024 RMK A01 T00641023  RH  054%=      5-min Rain = 0
KES1 142100Z 19013KT 06/M03 A3024 RMK A01 T00641026  RH  052%=      5-min Rain = 0
KES1 142101Z 19010KT 06/M03 A3024 RMK A01 T00631025  RH  053%=      5-min Rain = 0
KES1 142102Z 16011G16KT 06/M03 A3024 RMK A01 T00631025  RH  053%=      5-min Rain = 0
KES1 142103Z 17010G15KT 06/M02 A3024 RMK A01 T00641024  RH  053%=      5-min Rain = 0
KES1 142104Z 17012KT 07/M02 A3024 RMK A01 T00661022  RH  053%=      5-min Rain = 0
KES1 142105Z 17010KT 07/M02 A3024 RMK A01 T00671023  RH  053%=      5-min Rain = 0
KES1 142106Z 18011KT 07/M02 A3024 RMK A01 T00671022  RH  053%=      5-min Rain = 0
KES1 142107Z 18010KT 07/M02 A3023 RMK A01 T00681023  RH  052%=      5-min Rain = 0
KES1 142108Z 19009KT 07/M02 A3023 RMK A01 T00681022  RH  053%=      5-min Rain = 0
KES1 142109Z 18008KT 07/M02 A3023 RMK A01 T00691021  RH  052%=      5-min Rain = 0
KES1 142110Z 16012G19KT 07/M02 A3023 RMK A01 T00711021  RH  052%=      5-min Rain = 0
KES1 142111Z 18011G17KT 07/M02 A3023 RMK A01 T00711022  RH  051%=      5-min Rain = 0
KES1 142112Z 17009KT 07/M02 A3023 RMK A01 T00701022  RH  052%=      5-min Rain = 0
KES1 142113Z 18008KT 07/M02 A3023 RMK A01 T00701022  RH  052%=      5-min Rain = 0
KES1 142114Z 18009KT 07/M02 A3023 RMK A01 T00691023  RH  052%=      5-min Rain = 0
KES1 142115Z 16007KT 07/M02 A3023 RMK A01 T00681021  RH  053%=      5-min Rain = 0
KES1 142116Z 17007KT 07/M02 A3023 RMK A01 T00721020  RH  052%=      5-min Rain = 0
KES1 142117Z 18013KT 07/M02 A3023 RMK A01 T00731021  RH  051%=      5-min Rain = 0
KES1 142118Z 20009KT 07/M02 A3023 RMK A01 T00711024  RH  051%=      5-min Rain = 0
KES1 142119Z 19009KT 07/M02 A3023 RMK A01 T00681023  RH  052%=      5-min Rain = 0
KES1 142120Z 19010KT 07/M02 A3023 RMK A01 T00701022  RH  052%=      5-min Rain = 0
KES1 142121Z 20009KT 07/M02 A3023 RMK A01 T00701023  RH  052%=      5-min Rain = 0
KES1 142122Z 19009KT 07/M02 A3023 RMK A01 T00701022  RH  052%=      5-min Rain = 0
KES1 142123Z 18011KT 07/M02 A3023 RMK A01 T00731019  RH  052%=      5-min Rain = 0
KES1 142124Z 17011G16KT 07/M02 A3023 RMK A01 T00731021  RH  051%=      5-min Rain = 0
KES1 142125Z 20013KT 07/M02 A3022 RMK A01 T00741021  RH  051%=      5-min Rain = 0
KES1 142126Z 18009KT 07/M02 A3023 RMK A01 T00721023  RH  051%=      5-min Rain = 0
KES1 142127Z 17009KT 07/M03 A3023 RMK A01 T00701025  RH  051%=      5-min Rain = 0
KES1 142128Z 16013KT 07/M02 A3022 RMK A01 T00681023  RH  052%=      5-min Rain = 0
KES1 142129Z 16014KT 07/M02 A3022 RMK A01 T00691023  RH  052%=      5-min Rain = 0
KES1 142130Z 16011KT 07/M02 A3022 RMK A01 T00701021  RH  052%=      5-min Rain = 0
KES1 142131Z 16010KT 07/M02 A3022 RMK A01 T00701024  RH  051%=      5-min Rain = 0
KES1 142132Z 17010G15KT 07/M02 A3022 RMK A01 T00701023  RH  052%=      5-min Rain = 0
KES1 142133Z 17012KT 07/M02 A3022 RMK A01 T00711021  RH  052%=      5-min Rain = 0
KES1 142134Z 18011KT 07/M02 A3022 RMK A01 T00721021  RH  052%=      5-min Rain = 0
KES1 142135Z 18012KT 07/M02 A3022 RMK A01 T00711023  RH  051%=      5-min Rain = 0
KES1 142136Z 20011KT 07/M02 A3022 RMK A01 T00701022  RH  052%=      5-min Rain = 0
KES1 142137Z 20011KT 07/M02 A3022 RMK A01 T00721022  RH  051%=      5-min Rain = 0
KES1 142138Z 18011KT 07/M02 A3022 RMK A01 T00721023  RH  051%=      5-min Rain = 0
KES1 142139Z 17015KT 07/M02 A3022 RMK A01 T00721023  RH  051%=      5-min Rain = 0
KES1 142140Z 17010KT 07/M02 A3022 RMK A01 T00701023  RH  051%=      5-min Rain = 0
KES1 142141Z 19009G14KT 07/M02 A3022 RMK A01 T00721021  RH  052%=      5-min Rain = 0
KES1 142142Z 18010KT 07/M02 A3022 RMK A01 T00741020  RH  051%=      5-min Rain = 0
KES1 142143Z 18012KT 07/M02 A3022 RMK A01 T00731022  RH  051%=      5-min Rain = 0
KES1 142144Z 17015KT 07/M02 A3022 RMK A01 T00731021  RH  051%=      5-min Rain = 0
KES1 142145Z 17014KT 07/M02 A3021 RMK A01 T00741021  RH  051%=      5-min Rain = 0
KES1 142146Z 16013KT 07/M02 A3022 RMK A01 T00731024  RH  050%=      5-min Rain = 0
KES1 142147Z 17010KT 07/M02 A3022 RMK A01 T00721023  RH  051%=      5-min Rain = 0
KES1 142148Z 16010KT 07/M02 A3021 RMK A01 T00721023  RH  051%=      5-min Rain = 0
KES1 142149Z 20011G18KT 07/M02 A3021 RMK A01 T00721021  RH  052%=      5-min Rain = 0
KES1 142150Z 19012KT 07/M02 A3021 RMK A01 T00741022  RH  051%=      5-min Rain = 0
KES1 142151Z 19010KT 07/M02 A3021 RMK A01 T00731022  RH  051%=      5-min Rain = 0
KES1 142152Z 19014KT 07/M02 A3021 RMK A01 T00731022  RH  051%=      5-min Rain = 0
KES1 142153Z 18015KT 07/M02 A3021 RMK A01 T00741021  RH  051%=      5-min Rain = 0
KES1 142154Z 17013G18KT 07/M02 A3021 RMK A01 T00731022  RH  051%=      5-min Rain = 0
KES1 142155Z 17012KT 07/M02 A3021 RMK A01 T00731021  RH  051%=      5-min Rain = 0
KES1 142156Z 17011KT 07/M02 A3021 RMK A01 T00741019  RH  051%=      5-min Rain = 0
KES1 142157Z 18009KT 08/M02 A3021 RMK A01 T00761019  RH  051%=      5-min Rain = 0
KES1 142158Z 17012KT 08/M02 A302 RMK A01 T00771020  RH  050%=      5-min Rain = 0
KES1 142159Z 18011KT 08/M02 A3021 RMK A01 T00761020  RH  050%=      5-min Rain = 0
KES1 142200Z 19013KT 08/M02 A302 RMK A01 T00761020  RH  050%=      5-min Rain = 0
KES1 142201Z 19014KT 07/M02 A302 RMK A01 T00741023  RH  050%=      5-min Rain = 0
KES1 142202Z 19008KT 07/M02 A3021 RMK A01 T00721023  RH  051%=      5-min Rain = 0
KES1 142203Z 18014KT 07/M02 A302 RMK A01 T00731019  RH  052%=      5-min Rain = 0
KES1 142204Z 18010G15KT 08/M02 A302 RMK A01 T00751020  RH  051%=      5-min Rain = 0
KES1 142205Z 19011KT 08/M02 A302 RMK A01 T00751019  RH  051%=      5-min Rain = 0
KES1 142206Z 19011KT 08/M02 A302 RMK A01 T00761020  RH  051%=      5-min Rain = 0
KES1 142207Z 19015KT 08/M02 A302 RMK A01 T00761021  RH  050%=      5-min Rain = 0
KES1 142208Z 19014KT 07/M02 A302 RMK A01 T00741022  RH  050%=      5-min Rain = 0
KES1 142209Z 19011KT 07/M02 A302 RMK A01 T00741021  RH  051%=      5-min Rain = 0
KES1 142210Z 18014KT 08/M02 A302 RMK A01 T00751020  RH  051%=      5-min Rain = 0
KES1 142211Z 18015KT 07/M02 A302 RMK A01 T00741021  RH  051%=      5-min Rain = 0
KES1 142212Z 19015KT 07/M02 A302 RMK A01 T00731020  RH  051%=      5-min Rain = 0
KES1 142213Z 19014KT 07/M02 A302 RMK A01 T00741021  RH  051%=      5-min Rain = 0
KES1 142214Z 20013KT 07/M02 A302 RMK A01 T00741019  RH  052%=      5-min Rain = 0
KES1 142215Z 19015KT 08/M02 A302 RMK A01 T00751019  RH  051%=      5-min Rain = 0
KES1 142216Z 19013KT 08/M02 A302 RMK A01 T00751019  RH  051%=      5-min Rain = 0
KES1 142217Z 19013KT 08/M02 A302 RMK A01 T00751019  RH  051%=      5-min Rain = 0
KES1 142218Z 19013KT 08/M02 A302 RMK A01 T00761019  RH  051%=      5-min Rain = 0
KES1 142219Z 19015KT 08/M02 A302 RMK A01 T00751019  RH  051%=      5-min Rain = 0
KES1 142220Z 19013KT 08/M02 A302 RMK A01 T00751020  RH  051%=      5-min Rain = 0
KES1 142221Z 16012KT 08/M02 A302 RMK A01 T00751018  RH  052%=      5-min Rain = 0
KES1 142222Z 17011KT 08/M02 A302 RMK A01 T00761018  RH  051%=      5-min Rain = 0
KES1 142223Z 16013KT 08/M02 A302 RMK A01 T00751020  RH  051%=      5-min Rain = 0
KES1 142224Z 17010G16KT 07/M02 A3019 RMK A01 T00741020  RH  051%=      5-min Rain = 0
KES1 142225Z 17010KT 07/M02 A3019 RMK A01 T00741019  RH  052%=      5-min Rain = 0
KES1 142226Z 18015KT 08/M02 A3019 RMK A01 T00751018  RH  052%=      5-min Rain = 0
KES1 142227Z 18015KT 08/M02 A3019 RMK A01 T00761018  RH  051%=      5-min Rain = 0
KES1 142228Z 18016KT 08/M02 A3019 RMK A01 T00761018  RH  051%=      5-min Rain = 0
KES1 142229Z 18013KT 08/M02 A3019 RMK A01 T00761018  RH  051%=      5-min Rain = 0
KES1 142230Z 18015KT 08/M02 A3019 RMK A01 T00761018  RH  051%=      5-min Rain = 0
KES1 142231Z 17013KT 08/M02 A3019 RMK A01 T00761018  RH  051%=      5-min Rain = 0
KES1 142232Z 18012KT 08/M02 A3019 RMK A01 T00761017  RH  052%=      5-min Rain = 0
KES1 142233Z 18010KT 08/M02 A3019 RMK A01 T00761017  RH  051%=      5-min Rain = 0
KES1 142234Z 17011KT 08/M02 A3019 RMK A01 T00781016  RH  051%=      5-min Rain = 0
KES1 142235Z 17009KT 08/M02 A3019 RMK A01 T00791017  RH  051%=      5-min Rain = 0
KES1 142236Z 16011KT 08/M02 A3019 RMK A01 T00791016  RH  051%=      5-min Rain = 0
KES1 142237Z 17014KT 08/M02 A3019 RMK A01 T00781017  RH  051%=      5-min Rain = 0
KES1 142238Z 17012KT 08/M02 A3019 RMK A01 T00771017  RH  051%=      5-min Rain = 0
KES1 142239Z 18011KT 08/M02 A3019 RMK A01 T00761018  RH  051%=      5-min Rain = 0
KES1 142240Z 17011KT 08/M02 A3019 RMK A01 T00761017  RH  052%=      5-min Rain = 0
KES1 142241Z 17015KT 08/M02 A3019 RMK A01 T00761017  RH  052%=      5-min Rain = 0
KES1 142242Z 19015KT 08/M02 A3019 RMK A01 T00761017  RH  052%=      5-min Rain = 0
KES1 142243Z 17012KT 08/M02 A3019 RMK A01 T00761016  RH  052%=      5-min Rain = 0
KES1 142244Z 18014KT 08/M02 A3019 RMK A01 T00771016  RH  052%=      5-min Rain = 0
KES1 142245Z 18013KT 08/M02 A3019 RMK A01 T00771016  RH  052%=      5-min Rain = 0
KES1 142246Z 17011KT 08/M02 A3019 RMK A01 T00771015  RH  052%=      5-min Rain = 0
KES1 142247Z 18013KT 08/M02 A3019 RMK A01 T00771016  RH  051%=      5-min Rain = 0
KES1 142248Z 17014KT 08/M02 A3019 RMK A01 T00771016  RH  052%=      5-min Rain = 0
KES1 142249Z 16017G23KT 08/M02 A3019 RMK A01 T00771015  RH  052%=      5-min Rain = 0
KES1 142250Z 17015KT 08/M02 A3019 RMK A01 T00771016  RH  052%=      5-min Rain = 0
KES1 142251Z 17015KT 08/M02 A3019 RMK A01 T00771015  RH  052%=      5-min Rain = 0
KES1 142252Z 17014KT 08/M02 A3019 RMK A01 T00761015  RH  052%=      5-min Rain = 0
KES1 142253Z 18014KT 08/M02 A3019 RMK A01 T00761016  RH  052%=      5-min Rain = 0
KES1 142254Z 18016KT 08/M02 A3019 RMK A01 T00761015  RH  052%=      5-min Rain = 0
KES1 142255Z 17013G18KT 08/M02 A3018 RMK A01 T00761015  RH  053%=      5-min Rain = 0
KES1 142256Z 17014KT 08/M01 A3019 RMK A01 T00761014  RH  053%=      5-min Rain = 0
KES1 142257Z 16013G19KT 08/M01 A3018 RMK A01 T00761014  RH  053%=      5-min Rain = 0
KES1 142258Z 17016KT 08/M02 A3018 RMK A01 T00761015  RH  053%=      5-min Rain = 0
KES1 142259Z 17013KT 08/M01 A3018 RMK A01 T00761014  RH  053%=      5-min Rain = 0
KES1 142300Z 17016KT 08/M01 A3018 RMK A01 T00761014  RH  053%=      5-min Rain = 0
KES1 142301Z 18014KT 08/M01 A3018 RMK A01 T00761014  RH  053%=      5-min Rain = 0
KES1 142302Z 18014KT 08/M01 A3018 RMK A01 T00771013  RH  053%=      5-min Rain = 0
KES1 142303Z 18011KT 08/M01 A3018 RMK A01 T00771013  RH  053%=      5-min Rain = 0
KES1 142304Z 20014KT 08/M01 A3018 RMK A01 T00781012  RH  053%=      5-min Rain = 0
KES1 142305Z 19012KT 08/M01 A3018 RMK A01 T00791013  RH  052%=      5-min Rain = 0
KES1 142306Z 19012KT 08/M01 A3018 RMK A01 T00791013  RH  052%=      5-min Rain = 0
KES1 142307Z 18010KT 08/M01 A3018 RMK A01 T00791012  RH  053%=      5-min Rain = 0
KES1 142308Z 18013KT 08/M01 A3018 RMK A01 T00801012  RH  052%=      5-min Rain = 0
KES1 142309Z 17014KT 08/M01 A3018 RMK A01 T00791013  RH  052%=      5-min Rain = 0
KES1 142310Z 18015KT 08/M01 A3018 RMK A01 T00781012  RH  053%=      5-min Rain = 0
KES1 142311Z 18015KT 08/M01 A3018 RMK A01 T00771012  RH  053%=      5-min Rain = 0
KES1 142312Z 17013G18KT 08/M01 A3018 RMK A01 T00761013  RH  053%=      5-min Rain = 0
KES1 142313Z 18013G19KT 08/M01 A3018 RMK A01 T00761012  RH  054%=      5-min Rain = 0
KES1 142314Z 18017KT 08/M01 A3018 RMK A01 T00761012  RH  054%=      5-min Rain = 0
KES1 142315Z 18012KT 08/M01 A3018 RMK A01 T00761012  RH  054%=      5-min Rain = 0
KES1 142316Z 18011KT 08/M01 A3018 RMK A01 T00761011  RH  054%=      5-min Rain = 0
KES1 142317Z 18010KT 08/M01 A3018 RMK A01 T00771011  RH  054%=      5-min Rain = 0
KES1 142318Z 18015KT 08/M01 A3018 RMK A01 T00771012  RH  053%=      5-min Rain = 0
KES1 142319Z 17013G19KT 08/M01 A3018 RMK A01 T00771012  RH  053%=      5-min Rain = 0
KES1 142320Z 17014KT 08/M01 A3018 RMK A01 T00761012  RH  054%=      5-min Rain = 0
KES1 142321Z 18014KT 08/M01 A3018 RMK A01 T00761012  RH  054%=      5-min Rain = 0
KES1 142322Z 18011KT 08/M01 A3018 RMK A01 T00761011  RH  054%=      5-min Rain = 0
KES1 142323Z 18013KT 08/M01 A3018 RMK A01 T00771010  RH  054%=      5-min Rain = 0
KES1 142324Z 19013KT 08/M01 A3018 RMK A01 T00771011  RH  054%=      5-min Rain = 0
KES1 142325Z 18012G17KT 08/M01 A3018 RMK A01 T00771011  RH  054%=      5-min Rain = 0
KES1 142326Z 18015KT 08/M01 A3018 RMK A01 T00771011  RH  054%=      5-min Rain = 0
KES1 142327Z 17013G19KT 08/M01 A3018 RMK A01 T00761012  RH  054%=      5-min Rain = 0
KES1 142328Z 17011G18KT 08/M01 A3018 RMK A01 T00751011  RH  054%=      5-min Rain = 0
KES1 142329Z 18011KT 08/M01 A3018 RMK A01 T00751011  RH  054%=      5-min Rain = 0
KES1 142330Z 18010KT 08/M01 A3018 RMK A01 T00751011  RH  054%=      5-min Rain = 0
KES1 142331Z 18013G19KT 08/M01 A3018 RMK A01 T00751011  RH  054%=      5-min Rain = 0
KES1 142332Z 18008KT 08/M01 A3018 RMK A01 T00751010  RH  055%=      5-min Rain = 0
KES1 142333Z 17011KT 08/M01 A3018 RMK A01 T00751011  RH  055%=      5-min Rain = 0
KES1 142334Z 17012KT 08/M01 A3018 RMK A01 T00751010  RH  055%=      5-min Rain = 0
KES1 142335Z 18012KT 08/M01 A3018 RMK A01 T00751010  RH  055%=      5-min Rain = 0
KES1 142336Z 18012G17KT 08/M01 A3018 RMK A01 T00751010  RH  055%=      5-min Rain = 0
KES1 142337Z 18010KT 07/M01 A3018 RMK A01 T00741009  RH  055%=      5-min Rain = 0
KES1 142338Z 19012KT 08/M01 A3018 RMK A01 T00751009  RH  055%=      5-min Rain = 0
KES1 142339Z 18010KT 08/M01 A3018 RMK A01 T00751009  RH  055%=      5-min Rain = 0
KES1 142340Z 17009KT 08/M01 A3018 RMK A01 T00761008  RH  055%=      5-min Rain = 0
KES1 142341Z 18009KT 08/M01 A3018 RMK A01 T00751009  RH  055%=      5-min Rain = 0
KES1 142342Z 18011G16KT 07/M01 A3018 RMK A01 T00741009  RH  056%=      5-min Rain = 0
KES1 142343Z 18015KT 07/M01 A3018 RMK A01 T00741009  RH  056%=      5-min Rain = 0
KES1 142344Z 18012KT 07/M01 A3018 RMK A01 T00731009  RH  056%=      5-min Rain = 0
KES1 142345Z 18012KT 07/M01 A3018 RMK A01 T00741008  RH  056%=      5-min Rain = 0
KES1 142346Z 18013KT 07/M01 A3018 RMK A01 T00741008  RH  056%=      5-min Rain = 0
KES1 142347Z 18014KT 07/M01 A3018 RMK A01 T00731009  RH  056%=      5-min Rain = 0
KES1 142348Z 19012KT 07/M01 A3018 RMK A01 T00741008  RH  056%=      5-min Rain = 0
KES1 142349Z 19011KT 07/M01 A3018 RMK A01 T00741008  RH  056%=      5-min Rain = 0
KES1 142350Z 18011G16KT 07/M01 A3018 RMK A01 T00741008  RH  056%=      5-min Rain = 0
KES1 142351Z 19013KT 07/M01 A3018 RMK A01 T00741008  RH  056%=      5-min Rain = 0
KES1 142352Z 18011KT 07/M01 A3018 RMK A01 T00731008  RH  056%=      5-min Rain = 0
KES1 142353Z 18010KT 07/M01 A3018 RMK A01 T00741008  RH  056%=      5-min Rain = 0
KES1 142354Z 18011KT 07/M01 A3018 RMK A01 T00731008  RH  056%=      5-min Rain = 0
KES1 142355Z 19010G16KT 07/M01 A3018 RMK A01 T00731008  RH  057%=      5-min Rain = 0
KES1 142356Z 19011KT 07/M01 A3018 RMK A01 T00721008  RH  057%=      5-min Rain = 0
KES1 142357Z 19010KT 07/M01 A3018 RMK A01 T00721008  RH  057%=      5-min Rain = 0
KES1 142358Z 19009KT 07/M01 A3018 RMK A01 T00731008  RH  057%=      5-min Rain = 0
KES1 142359Z 18009KT 07/M01 A3018 RMK A01 T00721007  RH  057%=      5-min Rain = 0
KES1 150000Z 18009KT 07/M01 A3018 RMK A01 T00721008  RH  057%=      5-min Rain = 0
KES1 150001Z 18012KT 07/M01 A3018 RMK A01 T00711008  RH  057%=      5-min Rain = 0
KES1 150002Z 18010KT 07/M01 A3018 RMK A01 T00711007  RH  057%=      5-min Rain = 0
KES1 150003Z 18011KT 07/M01 A3018 RMK A01 T00701007  RH  058%=      5-min Rain = 0
KES1 150004Z 18011KT 07/M01 A3018 RMK A01 T00701007  RH  058%=      5-min Rain = 0
KES1 150005Z 18011KT 07/M01 A3018 RMK A01 T00701007  RH  058%=      5-min Rain = 0
KES1 150006Z 18009KT 07/M01 A3018 RMK A01 T00701007  RH  058%=      5-min Rain = 0
KES1 150007Z 19010KT 07/M01 A3018 RMK A01 T00691007  RH  058%=      5-min Rain = 0
KES1 150008Z 19009KT 07/M01 A3018 RMK A01 T00681007  RH  059%=      5-min Rain = 0
KES1 150009Z 19010KT 07/M01 A3018 RMK A01 T00681007  RH  059%=      5-min Rain = 0
KES1 150010Z 19009KT 07/M01 A3018 RMK A01 T00671007  RH  059%=      5-min Rain = 0
KES1 150011Z 20008KT 07/M01 A3018 RMK A01 T00671007  RH  059%=      5-min Rain = 0
KES1 150012Z 19008KT 07/M01 A3018 RMK A01 T00661008  RH  059%=      5-min Rain = 0
KES1 150013Z 20009KT 07/M01 A3018 RMK A01 T00661007  RH  060%=      5-min Rain = 0
KES1 150014Z 19012KT 07/M01 A3018 RMK A01 T00651007  RH  060%=      5-min Rain = 0
KES1 150015Z 21012G18KT 07/M01 A3018 RMK A01 T00651007  RH  060%=      5-min Rain = 0
KES1 150016Z 21012KT 07/M01 A3018 RMK A01 T00651007  RH  060%=      5-min Rain = 0
KES1 150017Z 20012KT 07/M01 A3018 RMK A01 T00651007  RH  060%=      5-min Rain = 0
KES1 150018Z 20010KT 06/M01 A3018 RMK A01 T00641007  RH  061%=      5-min Rain = 0
KES1 150019Z 21010KT 06/M01 A3018 RMK A01 T00631007  RH  061%=      5-min Rain = 0
KES1 150020Z 20010KT 06/M01 A3018 RMK A01 T00631007  RH  061%=      5-min Rain = 0
KES1 150021Z 20009KT 06/M01 A3018 RMK A01 T00621006  RH  061%=      5-min Rain = 0
KES1 150022Z 20009KT 06/M01 A3018 RMK A01 T00621006  RH  062%=      5-min Rain = 0
KES1 150023Z 21008KT 06/M01 A3018 RMK A01 T00611007  RH  062%=      5-min Rain = 0
KES1 150024Z 21008KT 06/M01 A3018 RMK A01 T00601007  RH  062%=      5-min Rain = 0
KES1 150025Z 21009KT 06/M01 A3018 RMK A01 T00591007  RH  063%=      5-min Rain = 0
KES1 150026Z 21009KT 06/M01 A3018 RMK A01 T00591007  RH  063%=      5-min Rain = 0
KES1 150027Z 21008KT 06/M01 A3018 RMK A01 T00581007  RH  063%=      5-min Rain = 0
KES1 150028Z 21008KT 06/M01 A3018 RMK A01 T00581007  RH  063%=      5-min Rain = 0
KES1 150029Z 21009KT 06/M01 A3018 RMK A01 T00571007  RH  064%=      5-min Rain = 0
KES1 150030Z 20009KT 06/M01 A3018 RMK A01 T00561007  RH  064%=      5-min Rain = 0
KES1 150031Z 20008KT 06/M01 A3018 RMK A01 T00561007  RH  064%=      5-min Rain = 0
KES1 150032Z 20009KT 06/M01 A3018 RMK A01 T00551007  RH  064%=      5-min Rain = 0
KES1 150033Z 20007KT 06/M01 A3018 RMK A01 T00551007  RH  064%=      5-min Rain = 0
KES1 150034Z 20007KT 05/M01 A3018 RMK A01 T00541007  RH  064%=      5-min Rain = 0
KES1 150035Z 20009KT 05/M01 A3018 RMK A01 T00541007  RH  065%=      5-min Rain = 0
KES1 150036Z 21007KT 05/M01 A3018 RMK A01 T00531007  RH  065%=      5-min Rain = 0
KES1 150037Z 20007G12KT 05/M01 A3018 RMK A01 T00531007  RH  065%=      5-min Rain = 0
KES1 150038Z 21007KT 05/M01 A3018 RMK A01 T00531007  RH  065%=      5-min Rain = 0
KES1 150039Z 20007KT 05/M01 A3018 RMK A01 T00531007  RH  065%=      5-min Rain = 0
KES1 150040Z 21007KT 05/M01 A3018 RMK A01 T00521007  RH  066%=      5-min Rain = 0
KES1 150041Z 21006KT 05/M01 A3018 RMK A01 T00521007  RH  066%=      5-min Rain = 0
KES1 150042Z 20008KT 05/M01 A3018 RMK A01 T00511007  RH  066%=      5-min Rain = 0
KES1 150043Z 21006KT 05/M01 A3018 RMK A01 T00511007  RH  066%=      5-min Rain = 0
KES1 150044Z 21008KT 05/M01 A3018 RMK A01 T00501008  RH  066%=      5-min Rain = 0
KES1 150045Z 21006KT 05/M01 A3018 RMK A01 T00491008  RH  067%=      5-min Rain = 0
KES1 150046Z 20006KT 05/M01 A3018 RMK A01 T00491008  RH  067%=      5-min Rain = 0
KES1 150047Z 20008KT 05/M01 A3018 RMK A01 T00491008  RH  067%=      5-min Rain = 0
KES1 150048Z 20008KT 05/M01 A3018 RMK A01 T00491007  RH  067%=      5-min Rain = 0
KES1 150049Z 21006KT 05/M01 A3018 RMK A01 T00491007  RH  067%=      5-min Rain = 0
KES1 150050Z 20007KT 05/M01 A3018 RMK A01 T00491007  RH  067%=      5-min Rain = 0
KES1 150051Z 20007KT 05/M01 A3018 RMK A01 T00481008  RH  067%=      5-min Rain = 0
KES1 150052Z 21007KT 05/M01 A3018 RMK A01 T00481007  RH  067%=      5-min Rain = 0
KES1 150053Z 21006KT 05/M01 A3018 RMK A01 T00471008  RH  067%=      5-min Rain = 0
KES1 150054Z 21006KT 05/M01 A3018 RMK A01 T00471008  RH  068%=      5-min Rain = 0
KES1 150055Z 20007KT 05/M01 A3018 RMK A01 T00471008  RH  068%=      5-min Rain = 0
KES1 150056Z 21006KT 05/M01 A3018 RMK A01 T00471008  RH  068%=      5-min Rain = 0
KES1 150057Z 20006KT 05/M01 A3018 RMK A01 T00461008  RH  068%=      5-min Rain = 0
KES1 150058Z 20006KT 05/M01 A3018 RMK A01 T00451008  RH  068%=      5-min Rain = 0
KES1 150059Z 20007KT 05/M01 A3018 RMK A01 T00451008  RH  068%=      5-min Rain = 0
KES1 150100Z 20006KT 05/M01 A3018 RMK A01 T00451008  RH  069%=      5-min Rain = 0
KES1 150101Z 20006KT 04/M01 A3018 RMK A01 T00441008  RH  069%=      5-min Rain = 0
KES1 150102Z 20006KT 04/M01 A3018 RMK A01 T00441008  RH  069%=      5-min Rain = 0
KES1 150103Z 20006KT 04/M01 A3018 RMK A01 T00441008  RH  069%=      5-min Rain = 0
KES1 150104Z 20006KT 04/M01 A3018 RMK A01 T00431009  RH  069%=      5-min Rain = 0
KES1 150105Z 20005KT 04/M01 A3018 RMK A01 T00431009  RH  069%=      5-min Rain = 0
KES1 150106Z 20006KT 04/M01 A3018 RMK A01 T00421009  RH  069%=      5-min Rain = 0
KES1 150107Z 20006KT 04/M01 A3018 RMK A01 T00411009  RH  070%=      5-min Rain = 0
KES1 150108Z 21005KT 04/M01 A3018 RMK A01 T00411009  RH  070%=      5-min Rain = 0
KES1 150109Z 20005KT 04/M01 A3018 RMK A01 T00401009  RH  070%=      5-min Rain = 0
KES1 150110Z 21005KT 04/M01 A3018 RMK A01 T00401009  RH  070%=      5-min Rain = 0
KES1 150111Z 20005KT 04/M01 A3018 RMK A01 T00401009  RH  070%=      5-min Rain = 0
KES1 150112Z 20005KT 04/M01 A3018 RMK A01 T00401009  RH  070%=      5-min Rain = 0
KES1 150113Z 20006KT 04/M01 A3018 RMK A01 T00401009  RH  070%=      5-min Rain = 0
KES1 150114Z 20005KT 04/M01 A3018 RMK A01 T00401009  RH  070%=      5-min Rain = 0
KES1 150115Z 20005KT 04/M01 A3018 RMK A01 T00401009  RH  070%=      5-min Rain = 0
KES1 150116Z 20005KT 04/M01 A3018 RMK A01 T00401009  RH  070%=      5-min Rain = 0
KES1 150117Z 20005KT 04/M01 A3018 RMK A01 T00391010  RH  070%=      5-min Rain = 0
KES1 150118Z 20005KT 04/M01 A3018 RMK A01 T00391010  RH  071%=      5-min Rain = 0
KES1 150119Z 20005KT 04/M01 A3018 RMK A01 T00381010  RH  071%=      5-min Rain = 0
KES1 150120Z 21005KT 04/M01 A3018 RMK A01 T00381010  RH  071%=      5-min Rain = 0
KES1 150121Z 21005KT 04/M01 A3018 RMK A01 T00381010  RH  071%=      5-min Rain = 0
KES1 150122Z 21005KT 04/M01 A3018 RMK A01 T00371010  RH  071%=      5-min Rain = 0
KES1 150123Z 20004KT 04/M01 A3018 RMK A01 T00361010  RH  072%=      5-min Rain = 0
KES1 150124Z 21004KT 04/M01 A3018 RMK A01 T00361010  RH  072%=      5-min Rain = 0
KES1 150125Z 21004KT 04/M01 A3018 RMK A01 T00361011  RH  072%=      5-min Rain = 0
KES1 150126Z 21004KT 04/M01 A3018 RMK A01 T00351010  RH  072%=      5-min Rain = 0
KES1 150127Z 21004KT 04/M01 A3018 RMK A01 T00351010  RH  072%=      5-min Rain = 0
KES1 150128Z 21005KT 04/M01 A3018 RMK A01 T00351010  RH  072%=      5-min Rain = 0
KES1 150129Z 21005KT 04/M01 A3018 RMK A01 T00351010  RH  072%=      5-min Rain = 0
KES1 150130Z 21005KT 04/M01 A3018 RMK A01 T00351010  RH  072%=      5-min Rain = 0
KES1 150131Z 21005KT 03/M01 A3018 RMK A01 T00341011  RH  072%=      5-min Rain = 0
KES1 150132Z 21004KT 03/M01 A3018 RMK A01 T00341010  RH  073%=      5-min Rain = 0
KES1 150133Z 20005KT 03/M01 A3018 RMK A01 T00341010  RH  073%=      5-min Rain = 0
KES1 150134Z 20005KT 03/M01 A3018 RMK A01 T00341010  RH  073%=      5-min Rain = 0
KES1 150135Z 20005KT 03/M01 A3018 RMK A01 T00341010  RH  073%=      5-min Rain = 0
KES1 150136Z 20005KT 03/M01 A3018 RMK A01 T00341010  RH  073%=      5-min Rain = 0
KES1 150137Z 20005KT 03/M01 A3018 RMK A01 T00341010  RH  073%=      5-min Rain = 0
KES1 150138Z 20005KT 03/M01 A3018 RMK A01 T00341010  RH  073%=      5-min Rain = 0
KES1 150139Z 20005KT 03/M01 A3018 RMK A01 T00341010  RH  073%=      5-min Rain = 0
KES1 150140Z 20004KT 03/M01 A3018 RMK A01 T00341010  RH  073%=      5-min Rain = 0
KES1 150141Z 20004KT 03/M01 A3018 RMK A01 T00331010  RH  073%=      5-min Rain = 0
KES1 150142Z 21004KT 03/M01 A3018 RMK A01 T00331010  RH  073%=      5-min Rain = 0
KES1 150143Z 21004KT 03/M01 A3018 RMK A01 T00321011  RH  073%=      5-min Rain = 0
KES1 150144Z 21004KT 03/M01 A3018 RMK A01 T00321011  RH  074%=      5-min Rain = 0
KES1 150145Z 22004KT 03/M01 A3018 RMK A01 T00311011  RH  074%=      5-min Rain = 0
KES1 150146Z 22003KT 03/M01 A3018 RMK A01 T00311011  RH  074%=      5-min Rain = 0
KES1 150147Z 23003KT 03/M01 A3018 RMK A01 T00301012  RH  074%=      5-min Rain = 0
KES1 150148Z 23002KT 03/M01 A3018 RMK A01 T00301012  RH  074%=      5-min Rain = 0
KES1 150149Z 24002KT 03/M01 A3018 RMK A01 T00301012  RH  074%=      5-min Rain = 0
KES1 150150Z 24002KT 03/M01 A3018 RMK A01 T00291012  RH  074%=      5-min Rain = 0
KES1 150151Z 23002KT 03/M01 A3018 RMK A01 T00291012  RH  075%=      5-min Rain = 0
KES1 150152Z 23002KT 03/M01 A3018 RMK A01 T00281012  RH  075%=      5-min Rain = 0
KES1 150153Z 24002KT 03/M01 A3018 RMK A01 T00281012  RH  075%=      5-min Rain = 0
KES1 150154Z 24003KT 03/M01 A3018 RMK A01 T00281012  RH  075%=      5-min Rain = 0
KES1 150155Z 25002KT 03/M01 A3018 RMK A01 T00281012  RH  075%=      5-min Rain = 0
KES1 150156Z 26002KT 03/M01 A3018 RMK A01 T00271013  RH  075%=      5-min Rain = 0
KES1 150157Z 25002KT 03/M01 A3018 RMK A01 T00261013  RH  075%=      5-min Rain = 0
KES1 150158Z 24003KT 03/M01 A3018 RMK A01 T00261013  RH  076%=      5-min Rain = 0
KES1 150159Z 23003KT 03/M01 A3018 RMK A01 T00261012  RH  076%=      5-min Rain = 0
KES1 150200Z 23003KT 03/M01 A3018 RMK A01 T00261012  RH  076%=      5-min Rain = 0
KES1 150201Z 23003KT 03/M01 A3018 RMK A01 T00261012  RH  076%=      5-min Rain = 0
KES1 150202Z 23003KT 03/M01 A3018 RMK A01 T00261012  RH  076%=      5-min Rain = 0
KES1 150203Z 23003KT 03/M01 A3018 RMK A01 T00261012  RH  076%=      5-min Rain = 0
KES1 150204Z 23003KT 03/M01 A3018 RMK A01 T00261013  RH  076%=      5-min Rain = 0
KES1 150205Z 23003KT 03/M01 A3018 RMK A01 T00261013  RH  076%=      5-min Rain = 0
KES1 150206Z 23003KT 03/M01 A3018 RMK A01 T00261012  RH  076%=      5-min Rain = 0
KES1 150207Z 22003KT 03/M01 A3018 RMK A01 T00261012  RH  076%=      5-min Rain = 0
KES1 150208Z 22004KT 03/M01 A3018 RMK A01 T00261012  RH  076%=      5-min Rain = 0
KES1 150209Z 22003KT 03/M01 A3018 RMK A01 T00261012  RH  076%=      5-min Rain = 0
KES1 150210Z 22003KT 03/M01 A3017 RMK A01 T00261012  RH  076%=      5-min Rain = 0
KES1 150211Z 22002KT 03/M01 A3017 RMK A01 T00251012  RH  076%=      5-min Rain = 0
KES1 150212Z 22002KT 03/M01 A3017 RMK A01 T00251012  RH  077%=      5-min Rain = 0
KES1 150213Z 22001KT 02/M01 A3017 RMK A01 T00241012  RH  077%=      5-min Rain = 0
KES1 150214Z 22001KT 02/M01 A3018 RMK A01 T00241012  RH  077%=      5-min Rain = 0
KES1 150215Z 22001KT 02/M01 A3018 RMK A01 T00241012  RH  077%=      5-min Rain = 0
KES1 150216Z 22001KT 02/M01 A3018 RMK A01 T00241012  RH  077%=      5-min Rain = 0
KES1 150217Z 22001KT 02/M01 A3017 RMK A01 T00241012  RH  077%=      5-min Rain = 0
KES1 150218Z 21001KT 02/M01 A3017 RMK A01 T00241012  RH  077%=      5-min Rain = 0
KES1 150219Z 18001KT 02/M01 A3017 RMK A01 T00231013  RH  077%=      5-min Rain = 0
KES1 150220Z 18001KT 02/M01 A3017 RMK A01 T00231013  RH  077%=      5-min Rain = 0
KES1 150221Z 19001KT 02/M01 A3017 RMK A01 T00211014  RH  077%=      5-min Rain = 0
KES1 150222Z 20001KT 02/M01 A3017 RMK A01 T00211014  RH  078%=      5-min Rain = 0
KES1 150223Z 21001KT 02/M02 A3017 RMK A01 T00201015  RH  078%=      5-min Rain = 0
KES1 150224Z 22000KT 02/M01 A3017 RMK A01 T00191014  RH  079%=      5-min Rain = 0
KES1 150225Z 26001KT 02/M01 A3017 RMK A01 T00191013  RH  079%=      5-min Rain = 0
KES1 150226Z 28001KT 02/M01 A3017 RMK A01 T00201012  RH  079%=      5-min Rain = 0
KES1 150227Z 28001KT 02/M01 A3017 RMK A01 T00201012  RH  079%=      5-min Rain = 0
KES1 150228Z 26002KT 02/M01 A3017 RMK A01 T00211012  RH  079%=      5-min Rain = 0
KES1 150229Z 25002KT 02/M01 A3017 RMK A01 T00211011  RH  079%=      5-min Rain = 0
KES1 150230Z 25002KT 02/M01 A3017 RMK A01 T00211011  RH  079%=      5-min Rain = 0
KES1 150231Z 24003KT 02/M01 A3017 RMK A01 T00221011  RH  079%=      5-min Rain = 0
KES1 150232Z 25002KT 02/M01 A3017 RMK A01 T00221012  RH  078%=      5-min Rain = 0
KES1 150233Z 25002KT 02/M01 A3017 RMK A01 T00221012  RH  078%=      5-min Rain = 0
KES1 150234Z 24002KT 02/M01 A3017 RMK A01 T00221012  RH  078%=      5-min Rain = 0
KES1 150235Z 23002KT 02/M01 A3017 RMK A01 T00221013  RH  078%=      5-min Rain = 0
KES1 150236Z 23002KT 02/M01 A3017 RMK A01 T00221013  RH  078%=      5-min Rain = 0
KES1 150237Z 24002KT 02/M01 A3017 RMK A01 T00211013  RH  078%=      5-min Rain = 0
KES1 150238Z 24002KT 02/M01 A3017 RMK A01 T00201014  RH  078%=      5-min Rain = 0
KES1 150239Z 24002KT 02/M01 A3017 RMK A01 T00191014  RH  078%=      5-min Rain = 0
KES1 150240Z 25002KT 02/M01 A3017 RMK A01 T00181014  RH  079%=      5-min Rain = 0
KES1 150241Z 26002KT 02/M01 A3017 RMK A01 T00181014  RH  079%=      5-min Rain = 0
KES1 150242Z 26002KT 02/M01 A3017 RMK A01 T00181014  RH  079%=      5-min Rain = 0
KES1 150243Z 26002KT 02/M01 A3017 RMK A01 T00181014  RH  079%=      5-min Rain = 0
KES1 150244Z 26003KT 02/M01 A3017 RMK A01 T00181014  RH  080%=      5-min Rain = 0
KES1 150245Z 26002KT 02/M01 A3017 RMK A01 T00181014  RH  080%=      5-min Rain = 0
KES1 150246Z 25002KT 02/M01 A3017 RMK A01 T00171014  RH  080%=      5-min Rain = 0
KES1 150247Z 25002KT 02/M02 A3017 RMK A01 T00171015  RH  080%=      5-min Rain = 0
KES1 150248Z 24002KT 02/M01 A3017 RMK A01 T00171014  RH  080%=      5-min Rain = 0
KES1 150249Z 24003KT 02/M01 A3017 RMK A01 T00161014  RH  080%=      5-min Rain = 0
KES1 150250Z 24003KT 02/M01 A3017 RMK A01 T00161014  RH  081%=      5-min Rain = 0
KES1 150251Z 24003KT 02/M01 A3017 RMK A01 T00161014  RH  080%=      5-min Rain = 0
KES1 150252Z 23003KT 02/M02 A3017 RMK A01 T00161015  RH  080%=      5-min Rain = 0
KES1 150253Z 23003KT 02/M02 A3017 RMK A01 T00161015  RH  080%=      5-min Rain = 0
KES1 150254Z 23003KT 02/M02 A3017 RMK A01 T00161015  RH  080%=      5-min Rain = 0
KES1 150255Z 23003KT 02/M02 A3017 RMK A01 T00151015  RH  080%=      5-min Rain = 0
KES1 150256Z 23003KT 02/M02 A3017 RMK A01 T00151016  RH  080%=      5-min Rain = 0
KES1 150257Z 23003KT 01/M02 A3017 RMK A01 T00141016  RH  080%=      5-min Rain = 0
KES1 150258Z 23003KT 01/M02 A3017 RMK A01 T00141016  RH  080%=      5-min Rain = 0
KES1 150259Z 24003KT 01/M02 A3017 RMK A01 T00131016  RH  081%=      5-min Rain = 0
KES1 150300Z 23003KT 01/M02 A3017 RMK A01 T00131016  RH  081%=      5-min Rain = 0
KES1 150301Z 23003KT 01/M02 A3017 RMK A01 T00131016  RH  081%=      5-min Rain = 0
KES1 150302Z 23002KT 01/M02 A3017 RMK A01 T00131016  RH  081%=      5-min Rain = 0
KES1 150303Z 22001KT 01/M02 A3017 RMK A01 T00131016  RH  081%=      5-min Rain = 0
KES1 150304Z 22001KT 01/M02 A3017 RMK A01 T00131016  RH  082%=      5-min Rain = 0
KES1 150305Z 22002KT 01/M02 A3017 RMK A01 T00121016  RH  082%=      5-min Rain = 0
KES1 150306Z 21002KT 01/M02 A3017 RMK A01 T00121016  RH  082%=      5-min Rain = 0
KES1 150307Z 22003KT 01/M02 A3017 RMK A01 T00121016  RH  082%=      5-min Rain = 0
KES1 150308Z 22003KT 01/M02 A3017 RMK A01 T00121016  RH  082%=      5-min Rain = 0
KES1 150309Z 22003KT 01/M02 A3017 RMK A01 T00121016  RH  082%=      5-min Rain = 0
KES1 150310Z 23003KT 01/M02 A3017 RMK A01 T00121016  RH  082%=      5-min Rain = 0
KES1 150311Z 23003KT 01/M02 A3017 RMK A01 T00121016  RH  082%=      5-min Rain = 0
KES1 150312Z 23003KT 01/M02 A3017 RMK A01 T00111016  RH  082%=      5-min Rain = 0
KES1 150313Z 23002KT 01/M02 A3017 RMK A01 T00111016  RH  082%=      5-min Rain = 0
KES1 150314Z 23002KT 01/M02 A3017 RMK A01 T00111016  RH  082%=      5-min Rain = 0
KES1 150315Z 24002KT 01/M02 A3017 RMK A01 T00111016  RH  082%=      5-min Rain = 0
KES1 150316Z 24002KT 01/M02 A3017 RMK A01 T00111016  RH  082%=      5-min Rain = 0
KES1 150317Z 24001KT 01/M02 A3017 RMK A01 T00111016  RH  082%=      5-min Rain = 0
KES1 150318Z 24001KT 01/M02 A3017 RMK A01 T00111016  RH  082%=      5-min Rain = 0
KES1 150319Z 25002KT 01/M02 A3017 RMK A01 T00111016  RH  082%=      5-min Rain = 0
KES1 150320Z 26002KT 01/M02 A3017 RMK A01 T00111016  RH  082%=      5-min Rain = 0
KES1 150321Z 26002KT 01/M02 A3017 RMK A01 T00111016  RH  082%=      5-min Rain = 0
KES1 150322Z 24002KT 01/M02 A3017 RMK A01 T00111016  RH  082%=      5-min Rain = 0
KES1 150323Z 23002KT 01/M02 A3017 RMK A01 T00111016  RH  082%=      5-min Rain = 0
KES1 150324Z 23002KT 01/M02 A3017 RMK A01 T00111016  RH  082%=      5-min Rain = 0
KES1 150325Z 21002KT 01/M02 A3017 RMK A01 T00111015  RH  082%=      5-min Rain = 0
KES1 150326Z 21002KT 01/M02 A3017 RMK A01 T00121015  RH  082%=      5-min Rain = 0
KES1 150327Z 21002KT 01/M02 A3017 RMK A01 T00121015  RH  082%=      5-min Rain = 0
KES1 150328Z 21003KT 01/M02 A3017 RMK A01 T00121015  RH  082%=      5-min Rain = 0
KES1 150329Z 20002KT 01/M02 A3017 RMK A01 T00121016  RH  082%=      5-min Rain = 0
KES1 150330Z 20002KT 01/M02 A3017 RMK A01 T00121016  RH  082%=      5-min Rain = 0
KES1 150331Z 20002KT 01/M02 A3017 RMK A01 T00111016  RH  082%=      5-min Rain = 0
KES1 150332Z 20002KT 01/M02 A3017 RMK A01 T00111015  RH  083%=      5-min Rain = 0
KES1 150333Z 21002KT 01/M02 A3017 RMK A01 T00111015  RH  083%=      5-min Rain = 0
KES1 150334Z 22002KT 01/M02 A3017 RMK A01 T00111015  RH  083%=      5-min Rain = 0
KES1 150335Z 22002KT 01/M02 A3017 RMK A01 T00111015  RH  083%=      5-min Rain = 0
KES1 150336Z 21002KT 01/M02 A3017 RMK A01 T00111015  RH  083%=      5-min Rain = 0
KES1 150337Z 21001KT 01/M01 A3017 RMK A01 T00111014  RH  083%=      5-min Rain = 0
KES1 150338Z 20002KT 01/M02 A3017 RMK A01 T00111015  RH  083%=      5-min Rain = 0
KES1 150339Z 20002KT 01/M02 A3016 RMK A01 T00121015  RH  083%=      5-min Rain = 0
KES1 150340Z 20002KT 01/M02 A3016 RMK A01 T00111015  RH  083%=      5-min Rain = 0
KES1 150341Z 19002KT 01/M02 A3016 RMK A01 T00111015  RH  083%=      5-min Rain = 0
KES1 150342Z 19002KT 01/M02 A3016 RMK A01 T00111016  RH  083%=      5-min Rain = 0
KES1 150343Z 20002KT 01/M02 A3016 RMK A01 T00101016  RH  083%=      5-min Rain = 0
KES1 150344Z 20002KT 01/M02 A3016 RMK A01 T00101016  RH  083%=      5-min Rain = 0
KES1 150345Z 20002KT 01/M02 A3016 RMK A01 T00091016  RH  083%=      5-min Rain = 0
KES1 150346Z 20002KT 01/M02 A3016 RMK A01 T00081016  RH  084%=      5-min Rain = 0
KES1 150347Z 19002KT 01/M02 A3016 RMK A01 T00081015  RH  084%=      5-min Rain = 0
KES1 150348Z 19002KT 01/M01 A3016 RMK A01 T00101013  RH  085%=      5-min Rain = 0
KES1 150349Z 19002KT 01/M01 A3016 RMK A01 T00091014  RH  084%=      5-min Rain = 0
KES1 150350Z 18002KT 01/M02 A3016 RMK A01 T00091015  RH  084%=      5-min Rain = 0
KES1 150351Z 19002KT 01/M02 A3016 RMK A01 T00091015  RH  084%=      5-min Rain = 0
KES1 150352Z 20002KT 01/M02 A3016 RMK A01 T00091015  RH  084%=      5-min Rain = 0
KES1 150353Z 20002KT 01/M01 A3016 RMK A01 T00101013  RH  084%=      5-min Rain = 0
KES1 150354Z 20002KT 01/M01 A3017 RMK A01 T00111012  RH  085%=      5-min Rain = 0
KES1 150355Z 20001KT 01/M01 A3017 RMK A01 T00121011  RH  085%=      5-min Rain = 0
KES1 150356Z 20001KT 01/M01 A3016 RMK A01 T00131011  RH  084%=      5-min Rain = 0
KES1 150357Z 20001KT 01/M01 A3016 RMK A01 T00141011  RH  083%=      5-min Rain = 0
KES1 150358Z 20001KT 01/M01 A3016 RMK A01 T00141011  RH  083%=      5-min Rain = 0
KES1 150359Z 20001KT 01/M01 A3016 RMK A01 T00141011  RH  083%=      5-min Rain = 0
KES1 150400Z 20001KT 01/M01 A3016 RMK A01 T00141012  RH  083%=      5-min Rain = 0
KES1 150401Z 24001KT 01/M01 A3016 RMK A01 T00141012  RH  083%=      5-min Rain = 0
KES1 150402Z 25001KT 02/M01 A3016 RMK A01 T00151012  RH  083%=      5-min Rain = 0
KES1 150403Z 25001KT 01/M01 A3016 RMK A01 T00141012  RH  083%=      5-min Rain = 0
KES1 150404Z 24001KT 01/M01 A3016 RMK A01 T00141011  RH  083%=      5-min Rain = 0
KES1 150405Z 24001KT 01/M01 A3016 RMK A01 T00141011  RH  083%=      5-min Rain = 0
KES1 150406Z 24001KT 01/M01 A3016 RMK A01 T00141012  RH  083%=      5-min Rain = 0
KES1 150407Z 24001KT 01/M01 A3016 RMK A01 T00141012  RH  083%=      5-min Rain = 0
KES1 150408Z 23001KT 01/M01 A3016 RMK A01 T00141012  RH  083%=      5-min Rain = 0
KES1 150409Z 23001KT 01/M01 A3016 RMK A01 T00131014  RH  083%=      5-min Rain = 0
KES1 150410Z 23001KT 01/M02 A3016 RMK A01 T00111015  RH  083%=      5-min Rain = 0
KES1 150411Z 23001KT 01/M01 A3016 RMK A01 T00111014  RH  083%=      5-min Rain = 0
KES1 150412Z 23001KT 01/M01 A3016 RMK A01 T00101014  RH  084%=      5-min Rain = 0
KES1 150413Z 23002KT 01/M01 A3016 RMK A01 T00101014  RH  084%=      5-min Rain = 0
KES1 150414Z 23001KT 01/M01 A3016 RMK A01 T00101013  RH  085%=      5-min Rain = 0
KES1 150415Z 22002KT 01/M01 A3016 RMK A01 T00101013  RH  085%=      5-min Rain = 0
KES1 150416Z 22002KT 01/M01 A3016 RMK A01 T00101012  RH  085%=      5-min Rain = 0
KES1 150417Z 22002KT 01/M01 A3016 RMK A01 T00111012  RH  085%=      5-min Rain = 0
KES1 150418Z 22002KT 01/M01 A3016 RMK A01 T00111012  RH  085%=      5-min Rain = 0
KES1 150419Z 22002KT 01/M01 A3016 RMK A01 T00111012  RH  084%=      5-min Rain = 0
KES1 150420Z 22002KT 01/M01 A3016 RMK A01 T00111013  RH  084%=      5-min Rain = 0
KES1 150421Z 22002KT 01/M01 A3016 RMK A01 T00111013  RH  084%=      5-min Rain = 0
KES1 150422Z 23002KT 01/M01 A3016 RMK A01 T00111012  RH  084%=      5-min Rain = 0
KES1 150423Z 23002KT 01/M01 A3016 RMK A01 T00111012  RH  085%=      5-min Rain = 0
KES1 150424Z 24002KT 01/M01 A3016 RMK A01 T00111012  RH  084%=      5-min Rain = 0
KES1 150425Z 25002KT 01/M01 A3016 RMK A01 T00111013  RH  084%=      5-min Rain = 0
KES1 150426Z 24001KT 01/M01 A3016 RMK A01 T00101013  RH  085%=      5-min Rain = 0
KES1 150427Z 25002KT 01/M01 A3016 RMK A01 T00111012  RH  085%=      5-min Rain = 0
KES1 150428Z 25002KT 01/M01 A3016 RMK A01 T00111012  RH  085%=      5-min Rain = 0
KES1 150429Z 25002KT 01/M01 A3016 RMK A01 T00111012  RH  085%=      5-min Rain = 0
KES1 150430Z 26002KT 01/M01 A3016 RMK A01 T00111012  RH  085%=      5-min Rain = 0
KES1 150431Z 26002KT 01/M01 A3016 RMK A01 T00111012  RH  085%=      5-min Rain = 0
KES1 150432Z 26002KT 01/M01 A3016 RMK A01 T00111012  RH  085%=      5-min Rain = 0
KES1 150433Z 26002KT 01/M01 A3016 RMK A01 T00121012  RH  084%=      5-min Rain = 0
KES1 150434Z 25002KT 01/M01 A3016 RMK A01 T00111013  RH  084%=      5-min Rain = 0
KES1 150435Z 25002KT 01/M01 A3015 RMK A01 T00101014  RH  084%=      5-min Rain = 0
KES1 150436Z 23002KT 01/M01 A3015 RMK A01 T00091014  RH  084%=      5-min Rain = 0
KES1 150437Z 22002KT 01/M02 A3015 RMK A01 T00081015  RH  085%=      5-min Rain = 0
KES1 150438Z 24002KT 01/M01 A3015 RMK A01 T00081014  RH  085%=      5-min Rain = 0
KES1 150439Z 23002KT 01/M01 A3015 RMK A01 T00081013  RH  086%=      5-min Rain = 0
KES1 150440Z 22002KT 01/M01 A3015 RMK A01 T00081013  RH  086%=      5-min Rain = 0
KES1 150441Z 24001KT 01/M01 A3015 RMK A01 T00091013  RH  086%=      5-min Rain = 0
KES1 150442Z 27001KT 01/M01 A3015 RMK A01 T00081014  RH  085%=      5-min Rain = 0
KES1 150443Z 26001KT 01/M01 A3015 RMK A01 T00091013  RH  085%=      5-min Rain = 0
KES1 150444Z 24001KT 01/M01 A3015 RMK A01 T00091013  RH  086%=      5-min Rain = 0
KES1 150445Z 27002KT 01/M01 A3015 RMK A01 T00091012  RH  085%=      5-min Rain = 0
KES1 150446Z 28002KT 01/M01 A3015 RMK A01 T00091012  RH  085%=      5-min Rain = 0
KES1 150447Z 28002KT 01/M01 A3015 RMK A01 T00101012  RH  085%=      5-min Rain = 0
KES1 150448Z 24002KT 01/M01 A3015 RMK A01 T00111011  RH  085%=      5-min Rain = 0
KES1 150449Z 22002KT 01/M01 A3015 RMK A01 T00111012  RH  085%=      5-min Rain = 0
KES1 150450Z 24002KT 01/M01 A3015 RMK A01 T00111013  RH  085%=      5-min Rain = 0
KES1 150451Z 26002KT 01/M01 A3015 RMK A01 T00111013  RH  085%=      5-min Rain = 0
KES1 150452Z 26002KT 01/M01 A3015 RMK A01 T00101013  RH  085%=      5-min Rain = 0
KES1 150453Z 26002KT 01/M01 A3015 RMK A01 T00101013  RH  085%=      5-min Rain = 0
KES1 150454Z 25002KT 01/M01 A3015 RMK A01 T00101013  RH  085%=      5-min Rain = 0
KES1 150455Z 25002KT 01/M02 A3015 RMK A01 T00091015  RH  085%=      5-min Rain = 0
KES1 150456Z 25003KT 01/M02 A3015 RMK A01 T00081015  RH  085%=      5-min Rain = 0
KES1 150457Z 25003KT 01/M02 A3015 RMK A01 T00071015  RH  085%=      5-min Rain = 0
KES1 150458Z 26003KT 01/M02 A3015 RMK A01 T00061017  RH  085%=      5-min Rain = 0
KES1 150459Z 26003KT 00/M02 A3015 RMK A01 T00041018  RH  085%=      5-min Rain = 0
KES1 150500Z 26003KT 00/M02 A3015 RMK A01 T00021020  RH  085%=      5-min Rain = 0
KES1 150501Z 26003KT 00/M02 A3015 RMK A01 T00011020  RH  086%=      5-min Rain = 0
KES1 150502Z 25003KT 00/M02 A3015 RMK A01 T00011019  RH  087%=      5-min Rain = 0
KES1 150503Z 25003KT 00/02 A3015 RMK A01 T00-00-19  RH  087%=      5-min Rain = 0
KES1 150504Z 25003KT 00/02 A3015 RMK A01 T00-00-19  RH  088%=      5-min Rain = 0
KES1 150505Z 25003KT M00/M02 A3015 RMK A01 T10011019  RH  088%=      5-min Rain = 0
KES1 150506Z 25003KT M00/M02 A3015 RMK A01 T10011019  RH  088%=      5-min Rain = 0
KES1 150507Z 25004KT M00/M02 A3015 RMK A01 T10011018  RH  088%=      5-min Rain = 0
KES1 150508Z 25004KT M00/M02 A3015 RMK A01 T10011018  RH  089%=      5-min Rain = 0
KES1 150509Z 25004KT M00/M02 A3015 RMK A01 T10021018  RH  089%=      5-min Rain = 0
KES1 150510Z 25004KT M00/M02 A3015 RMK A01 T10021018  RH  089%=      5-min Rain = 0
KES1 150511Z 25003KT M00/M02 A3015 RMK A01 T10021018  RH  089%=      5-min Rain = 0
KES1 150512Z 24004KT M00/M02 A3015 RMK A01 T10021018  RH  089%=      5-min Rain = 0
KES1 150513Z 24003KT M00/M02 A3015 RMK A01 T10011017  RH  089%=      5-min Rain = 0
KES1 150514Z 24003KT M00/M02 A3015 RMK A01 T10011017  RH  089%=      5-min Rain = 0
KES1 150515Z 24003KT M00/M02 A3015 RMK A01 T10011017  RH  089%=      5-min Rain = 0
KES1 150516Z 24003KT 00/02 A3015 RMK A01 T00-00-17  RH  089%=      5-min Rain = 0
KES1 150517Z 24003KT 00/02 A3014 RMK A01 T00000-16  RH  089%=      5-min Rain = 0
KES1 150518Z 24003KT 00/M02 A3014 RMK A01 T00011015  RH  089%=      5-min Rain = 0
KES1 150519Z 24003KT 00/M02 A3014 RMK A01 T00011015  RH  089%=      5-min Rain = 0
KES1 150520Z 25003KT 00/M02 A3014 RMK A01 T00011015  RH  089%=      5-min Rain = 0
KES1 150521Z 25004KT 00/M02 A3014 RMK A01 T00021015  RH  088%=      5-min Rain = 0
KES1 150522Z 25003KT 00/M02 A3014 RMK A01 T00011016  RH  088%=      5-min Rain = 0
KES1 150523Z 24003KT 00/M02 A3014 RMK A01 T00021016  RH  088%=      5-min Rain = 0
KES1 150524Z 24003KT 00/M02 A3014 RMK A01 T00021016  RH  088%=      5-min Rain = 0
KES1 150525Z 24003KT 00/M02 A3014 RMK A01 T00011017  RH  088%=      5-min Rain = 0
KES1 150526Z 24003KT 00/02 A3014 RMK A01 T00000-18  RH  088%=      5-min Rain = 0
KES1 150527Z 23003KT M00/M02 A3014 RMK A01 T10011019  RH  088%=      5-min Rain = 0
KES1 150528Z 23003KT M00/M02 A3014 RMK A01 T10021020  RH  088%=      5-min Rain = 0
KES1 150529Z 24003KT M00/M02 A3014 RMK A01 T10021019  RH  089%=      5-min Rain = 0
KES1 150530Z 24003KT M00/M02 A3014 RMK A01 T10021018  RH  089%=      5-min Rain = 0
KES1 150531Z 23003KT M00/M02 A3014 RMK A01 T10021017  RH  089%=      5-min Rain = 0
KES1 150532Z 23003KT M00/M02 A3014 RMK A01 T10011017  RH  089%=      5-min Rain = 0
KES1 150533Z 24003KT M00/M02 A3014 RMK A01 T10011016  RH  090%=      5-min Rain = 0
KES1 150534Z 24003KT M00/M02 A3014 RMK A01 T10011016  RH  089%=      5-min Rain = 0
KES1 150535Z 24003KT M00/M02 A3014 RMK A01 T10011016  RH  089%=      5-min Rain = 0
KES1 150536Z 25003KT M00/M02 A3014 RMK A01 T10011017  RH  089%=      5-min Rain = 0
KES1 150537Z 25003KT M00/M02 A3014 RMK A01 T10011016  RH  089%=      5-min Rain = 0
KES1 150538Z 24003KT 00/02 A3014 RMK A01 T00-00-16  RH  089%=      5-min Rain = 0
KES1 150539Z 24003KT M00/M02 A3014 RMK A01 T10011017  RH  089%=      5-min Rain = 0
KES1 150540Z 24003KT M00/M02 A3014 RMK A01 T10011017  RH  089%=      5-min Rain = 0
KES1 150541Z 24002KT M00/M02 A3014 RMK A01 T10011017  RH  089%=      5-min Rain = 0
KES1 150542Z 23002KT M00/M02 A3014 RMK A01 T10011018  RH  089%=      5-min Rain = 0
KES1 150543Z 23003KT M00/M02 A3014 RMK A01 T10021018  RH  089%=      5-min Rain = 0
KES1 150544Z 22003KT M00/M02 A3014 RMK A01 T10021018  RH  089%=      5-min Rain = 0
KES1 150545Z 22003KT M00/M02 A3014 RMK A01 T10031019  RH  089%=      5-min Rain = 0
KES1 150546Z 23003KT M00/M02 A3014 RMK A01 T10041019  RH  089%=      5-min Rain = 0
KES1 150547Z 25003KT M00/M02 A3014 RMK A01 T10041019  RH  090%=      5-min Rain = 0
KES1 150548Z 25003KT M00/M02 A3014 RMK A01 T10041018  RH  090%=      5-min Rain = 0
KES1 150549Z 24003KT M00/M02 A3014 RMK A01 T10031017  RH  090%=      5-min Rain = 0
KES1 150550Z 24003KT M00/M02 A3014 RMK A01 T10031017  RH  090%=      5-min Rain = 0
KES1 150551Z 24002KT M00/M02 A3014 RMK A01 T10031017  RH  090%=      5-min Rain = 0
KES1 150552Z 23003KT M00/M02 A3013 RMK A01 T10031017  RH  090%=      5-min Rain = 0
KES1 150553Z 23003KT M00/M02 A3013 RMK A01 T10031017  RH  090%=      5-min Rain = 0
KES1 150554Z 23003KT M00/M02 A3013 RMK A01 T10031018  RH  090%=      5-min Rain = 0
KES1 150555Z 23003KT M00/M02 A3013 RMK A01 T10031018  RH  090%=      5-min Rain = 0
KES1 150556Z 22003KT M00/M02 A3013 RMK A01 T10041019  RH  090%=      5-min Rain = 0
KES1 150557Z 22003KT M01/M02 A3013 RMK A01 T10061022  RH  089%=      5-min Rain = 0
KES1 150558Z 22003KT M01/M03 A3013 RMK A01 T10081026  RH  088%=      5-min Rain = 0
KES1 150559Z 22003KT M01/M03 A3013 RMK A01 T10091025  RH  089%=      5-min Rain = 0

Page generated in 0.1143 seconds.